<?xml version="1.0" encoding="UTF-8" standalone="no" ?>
<gpx xmlns="http://www.topografix.com/GPX/1/1" xmlns:xsi="http://www.w3.org/2001/XMLSchema-instance" xsi:schemaLocation="http://www.topografix.com/GPX/1/1 http://www.topografix.com/GPX/1/1/gpx.xsd" version="1.1" creator="VisuGPX - https://www.visugpx.com">
  <metadata>
    <name>Le mas d'Azil </name>
    <desc><![CDATA[Circuit 1: La Croix            2h00-  6 km- 235 m dénivelé . A faire le matin . Panorama sur Le Mas d' Azil , le lac de Filheit et sur les Pyrénées.
Circuit 2: Les Dolmens    4h00-13 km- 380  m de dénivelé . A ne pas faire quand il fait chaud . Trop long avec peu d' intérêt . Pas de visuel quand les arbres sont feuillus. 
Circuit 3: 3 circuits en 1 : Corniches Sud et Nord et Chemin de pierres 
                                        3h00-  6 km- 370 m de dénivelé . 
Ne connaissant pas , j'ai fait les 2 corniches séparément en revenant à la route, mais on peut combiner les deux sans y revenir .
Très beau parcours à l'ombre pour la Corniche Nord . Cabanes en pierres sèches sur les 3 parcours avec panorama sur les Pyrénées . Constructions artistiques sur le Chemin de pierres .

]]></desc>
  </metadata>
  <trk>
    <name><![CDATA[Le Mas d' Azil croix]]></name>
    <trkseg>
      <trkpt lat="43.07973" lon="1.36107">
        <ele>292.86</ele>
        <time>2017-03-30T08:23:08Z</time>
      </trkpt>
      <trkpt lat="43.07972" lon="1.36108">
        <ele>292.86</ele>
        <time>2017-03-30T08:23:09Z</time>
      </trkpt>
      <trkpt lat="43.07966" lon="1.36126">
        <ele>292.38</ele>
        <time>2017-03-30T08:23:26Z</time>
      </trkpt>
      <trkpt lat="43.07958" lon="1.36122">
        <ele>292.38</ele>
        <time>2017-03-30T08:23:38Z</time>
      </trkpt>
      <trkpt lat="43.0795" lon="1.36113">
        <ele>292.38</ele>
        <time>2017-03-30T08:23:52Z</time>
      </trkpt>
      <trkpt lat="43.07943" lon="1.36109">
        <ele>293.34</ele>
        <time>2017-03-30T08:24:06Z</time>
      </trkpt>
      <trkpt lat="43.0793" lon="1.36096">
        <ele>293.34</ele>
        <time>2017-03-30T08:24:23Z</time>
      </trkpt>
      <trkpt lat="43.07925" lon="1.36093">
        <ele>293.34</ele>
        <time>2017-03-30T08:24:30Z</time>
      </trkpt>
      <trkpt lat="43.07915" lon="1.3608">
        <ele>293.34</ele>
        <time>2017-03-30T08:24:46Z</time>
      </trkpt>
      <trkpt lat="43.07909" lon="1.3607">
        <ele>293.34</ele>
        <time>2017-03-30T08:25:01Z</time>
      </trkpt>
      <trkpt lat="43.07906" lon="1.36069">
        <ele>293.34</ele>
        <time>2017-03-30T08:25:16Z</time>
      </trkpt>
      <trkpt lat="43.07901" lon="1.36062">
        <ele>293.82</ele>
        <time>2017-03-30T08:25:33Z</time>
      </trkpt>
      <trkpt lat="43.07894" lon="1.36056">
        <ele>293.82</ele>
        <time>2017-03-30T08:25:59Z</time>
      </trkpt>
      <trkpt lat="43.0789" lon="1.36053">
        <ele>293.82</ele>
        <time>2017-03-30T08:26:07Z</time>
      </trkpt>
      <trkpt lat="43.07882" lon="1.36038">
        <ele>293.82</ele>
        <time>2017-03-30T08:26:21Z</time>
      </trkpt>
      <trkpt lat="43.07878" lon="1.36035">
        <ele>293.82</ele>
        <time>2017-03-30T08:26:26Z</time>
      </trkpt>
      <trkpt lat="43.07873" lon="1.3603">
        <ele>293.82</ele>
        <time>2017-03-30T08:26:31Z</time>
      </trkpt>
      <trkpt lat="43.07856" lon="1.36019">
        <ele>293.82</ele>
        <time>2017-03-30T08:26:48Z</time>
      </trkpt>
      <trkpt lat="43.07852" lon="1.3602">
        <ele>293.82</ele>
        <time>2017-03-30T08:26:52Z</time>
      </trkpt>
      <trkpt lat="43.07837" lon="1.36016">
        <ele>293.82</ele>
        <time>2017-03-30T08:27:05Z</time>
      </trkpt>
      <trkpt lat="43.07829" lon="1.36014">
        <ele>293.82</ele>
        <time>2017-03-30T08:27:13Z</time>
      </trkpt>
      <trkpt lat="43.07826" lon="1.36012">
        <ele>293.82</ele>
        <time>2017-03-30T08:27:17Z</time>
      </trkpt>
      <trkpt lat="43.0782" lon="1.36012">
        <ele>293.82</ele>
        <time>2017-03-30T08:27:22Z</time>
      </trkpt>
      <trkpt lat="43.07803" lon="1.36012">
        <ele>293.82</ele>
        <time>2017-03-30T08:27:36Z</time>
      </trkpt>
      <trkpt lat="43.07794" lon="1.36011">
        <ele>294.3</ele>
        <time>2017-03-30T08:27:43Z</time>
      </trkpt>
      <trkpt lat="43.07787" lon="1.3601">
        <ele>294.3</ele>
        <time>2017-03-30T08:27:48Z</time>
      </trkpt>
      <trkpt lat="43.07781" lon="1.36007">
        <ele>294.78</ele>
        <time>2017-03-30T08:27:53Z</time>
      </trkpt>
      <trkpt lat="43.0776" lon="1.35994">
        <ele>295.74</ele>
        <time>2017-03-30T08:28:08Z</time>
      </trkpt>
      <trkpt lat="43.07752" lon="1.35992">
        <ele>296.22</ele>
        <time>2017-03-30T08:28:18Z</time>
      </trkpt>
      <trkpt lat="43.0775" lon="1.3599">
        <ele>296.22</ele>
        <time>2017-03-30T08:28:19Z</time>
      </trkpt>
      <trkpt lat="43.07749" lon="1.3599">
        <ele>296.22</ele>
        <time>2017-03-30T08:28:20Z</time>
      </trkpt>
      <trkpt lat="43.07746" lon="1.35989">
        <ele>296.22</ele>
        <time>2017-03-30T08:28:23Z</time>
      </trkpt>
      <trkpt lat="43.07744" lon="1.35989">
        <ele>296.22</ele>
        <time>2017-03-30T08:28:24Z</time>
      </trkpt>
      <trkpt lat="43.07743" lon="1.35988">
        <ele>296.22</ele>
        <time>2017-03-30T08:28:25Z</time>
      </trkpt>
      <trkpt lat="43.07734" lon="1.35989">
        <ele>297.18</ele>
        <time>2017-03-30T08:28:33Z</time>
      </trkpt>
      <trkpt lat="43.07732" lon="1.35989">
        <ele>297.18</ele>
        <time>2017-03-30T08:28:34Z</time>
      </trkpt>
      <trkpt lat="43.07727" lon="1.35989">
        <ele>297.18</ele>
        <time>2017-03-30T08:28:38Z</time>
      </trkpt>
      <trkpt lat="43.07726" lon="1.35988">
        <ele>297.67</ele>
        <time>2017-03-30T08:28:39Z</time>
      </trkpt>
      <trkpt lat="43.07724" lon="1.35988">
        <ele>297.67</ele>
        <time>2017-03-30T08:28:40Z</time>
      </trkpt>
      <trkpt lat="43.07712" lon="1.35985">
        <ele>298.63</ele>
        <time>2017-03-30T08:28:51Z</time>
      </trkpt>
      <trkpt lat="43.07703" lon="1.35985">
        <ele>299.11</ele>
        <time>2017-03-30T08:28:59Z</time>
      </trkpt>
      <trkpt lat="43.07701" lon="1.35985">
        <ele>299.11</ele>
        <time>2017-03-30T08:29:00Z</time>
      </trkpt>
      <trkpt lat="43.077" lon="1.35985">
        <ele>299.11</ele>
        <time>2017-03-30T08:29:01Z</time>
      </trkpt>
      <trkpt lat="43.07684" lon="1.35983">
        <ele>300.55</ele>
        <time>2017-03-30T08:29:14Z</time>
      </trkpt>
      <trkpt lat="43.07665" lon="1.35978">
        <ele>301.99</ele>
        <time>2017-03-30T08:29:30Z</time>
      </trkpt>
      <trkpt lat="43.07656" lon="1.35975">
        <ele>302.47</ele>
        <time>2017-03-30T08:29:39Z</time>
      </trkpt>
      <trkpt lat="43.07654" lon="1.35975">
        <ele>302.47</ele>
        <time>2017-03-30T08:29:40Z</time>
      </trkpt>
      <trkpt lat="43.07653" lon="1.35974">
        <ele>302.95</ele>
        <time>2017-03-30T08:29:41Z</time>
      </trkpt>
      <trkpt lat="43.07652" lon="1.35974">
        <ele>302.95</ele>
        <time>2017-03-30T08:29:42Z</time>
      </trkpt>
      <trkpt lat="43.0765" lon="1.35974">
        <ele>302.95</ele>
        <time>2017-03-30T08:29:43Z</time>
      </trkpt>
      <trkpt lat="43.07649" lon="1.35975">
        <ele>302.95</ele>
        <time>2017-03-30T08:29:44Z</time>
      </trkpt>
      <trkpt lat="43.07648" lon="1.35974">
        <ele>303.43</ele>
        <time>2017-03-30T08:29:45Z</time>
      </trkpt>
      <trkpt lat="43.07635" lon="1.3597">
        <ele>303.91</ele>
        <time>2017-03-30T08:29:59Z</time>
      </trkpt>
      <trkpt lat="43.07631" lon="1.35972">
        <ele>304.39</ele>
        <time>2017-03-30T08:30:06Z</time>
      </trkpt>
      <trkpt lat="43.0763" lon="1.35972">
        <ele>304.39</ele>
        <time>2017-03-30T08:30:07Z</time>
      </trkpt>
      <trkpt lat="43.07627" lon="1.35972">
        <ele>304.88</ele>
        <time>2017-03-30T08:30:10Z</time>
      </trkpt>
      <trkpt lat="43.07624" lon="1.35973">
        <ele>305.36</ele>
        <time>2017-03-30T08:30:40Z</time>
      </trkpt>
      <trkpt lat="43.07625" lon="1.35979">
        <ele>305.36</ele>
        <time>2017-03-30T08:30:44Z</time>
      </trkpt>
      <trkpt lat="43.07625" lon="1.35982">
        <ele>306.32</ele>
        <time>2017-03-30T08:30:47Z</time>
      </trkpt>
      <trkpt lat="43.07626" lon="1.35984">
        <ele>306.32</ele>
        <time>2017-03-30T08:30:48Z</time>
      </trkpt>
      <trkpt lat="43.07626" lon="1.35986">
        <ele>306.32</ele>
        <time>2017-03-30T08:30:49Z</time>
      </trkpt>
      <trkpt lat="43.07628" lon="1.35995">
        <ele>307.28</ele>
        <time>2017-03-30T08:30:55Z</time>
      </trkpt>
      <trkpt lat="43.07628" lon="1.35999">
        <ele>308.72</ele>
        <time>2017-03-30T08:30:59Z</time>
      </trkpt>
      <trkpt lat="43.07627" lon="1.36005">
        <ele>309.2</ele>
        <time>2017-03-30T08:31:02Z</time>
      </trkpt>
      <trkpt lat="43.07621" lon="1.36028">
        <ele>312.57</ele>
        <time>2017-03-30T08:31:18Z</time>
      </trkpt>
      <trkpt lat="43.07617" lon="1.36037">
        <ele>314.01</ele>
        <time>2017-03-30T08:31:26Z</time>
      </trkpt>
      <trkpt lat="43.07611" lon="1.36042">
        <ele>314.97</ele>
        <time>2017-03-30T08:31:33Z</time>
      </trkpt>
      <trkpt lat="43.0761" lon="1.36047">
        <ele>315.93</ele>
        <time>2017-03-30T08:31:38Z</time>
      </trkpt>
      <trkpt lat="43.07609" lon="1.36048">
        <ele>316.41</ele>
        <time>2017-03-30T08:31:39Z</time>
      </trkpt>
      <trkpt lat="43.07607" lon="1.36051">
        <ele>316.89</ele>
        <time>2017-03-30T08:31:49Z</time>
      </trkpt>
      <trkpt lat="43.07607" lon="1.36053">
        <ele>316.89</ele>
        <time>2017-03-30T08:31:50Z</time>
      </trkpt>
      <trkpt lat="43.07605" lon="1.36056">
        <ele>317.37</ele>
        <time>2017-03-30T08:31:53Z</time>
      </trkpt>
      <trkpt lat="43.07602" lon="1.36061">
        <ele>318.33</ele>
        <time>2017-03-30T08:31:57Z</time>
      </trkpt>
      <trkpt lat="43.07597" lon="1.3608">
        <ele>319.78</ele>
        <time>2017-03-30T08:32:10Z</time>
      </trkpt>
      <trkpt lat="43.07597" lon="1.36081">
        <ele>319.78</ele>
        <time>2017-03-30T08:32:11Z</time>
      </trkpt>
      <trkpt lat="43.07597" lon="1.36083">
        <ele>320.26</ele>
        <time>2017-03-30T08:32:12Z</time>
      </trkpt>
      <trkpt lat="43.07592" lon="1.36103">
        <ele>320.74</ele>
        <time>2017-03-30T08:32:24Z</time>
      </trkpt>
      <trkpt lat="43.07585" lon="1.36137">
        <ele>321.7</ele>
        <time>2017-03-30T08:32:43Z</time>
      </trkpt>
      <trkpt lat="43.07581" lon="1.36166">
        <ele>322.66</ele>
        <time>2017-03-30T08:33:01Z</time>
      </trkpt>
      <trkpt lat="43.07581" lon="1.36183">
        <ele>324.1</ele>
        <time>2017-03-30T08:33:12Z</time>
      </trkpt>
      <trkpt lat="43.07581" lon="1.36193">
        <ele>325.06</ele>
        <time>2017-03-30T08:33:18Z</time>
      </trkpt>
      <trkpt lat="43.0758" lon="1.36195">
        <ele>325.06</ele>
        <time>2017-03-30T08:33:19Z</time>
      </trkpt>
      <trkpt lat="43.0758" lon="1.36197">
        <ele>325.54</ele>
        <time>2017-03-30T08:33:20Z</time>
      </trkpt>
      <trkpt lat="43.0758" lon="1.36214">
        <ele>327.47</ele>
        <time>2017-03-30T08:33:31Z</time>
      </trkpt>
      <trkpt lat="43.0758" lon="1.36238">
        <ele>330.35</ele>
        <time>2017-03-30T08:33:47Z</time>
      </trkpt>
      <trkpt lat="43.07577" lon="1.36255">
        <ele>330.83</ele>
        <time>2017-03-30T08:34:00Z</time>
      </trkpt>
      <trkpt lat="43.07577" lon="1.36263">
        <ele>330.83</ele>
        <time>2017-03-30T08:34:06Z</time>
      </trkpt>
      <trkpt lat="43.07578" lon="1.36274">
        <ele>329.87</ele>
        <time>2017-03-30T08:34:15Z</time>
      </trkpt>
      <trkpt lat="43.07576" lon="1.36281">
        <ele>329.87</ele>
        <time>2017-03-30T08:34:19Z</time>
      </trkpt>
      <trkpt lat="43.07575" lon="1.36282">
        <ele>329.87</ele>
        <time>2017-03-30T08:34:20Z</time>
      </trkpt>
      <trkpt lat="43.07575" lon="1.36284">
        <ele>329.87</ele>
        <time>2017-03-30T08:34:21Z</time>
      </trkpt>
      <trkpt lat="43.07574" lon="1.36288">
        <ele>329.87</ele>
        <time>2017-03-30T08:34:24Z</time>
      </trkpt>
      <trkpt lat="43.07576" lon="1.36297">
        <ele>329.39</ele>
        <time>2017-03-30T08:34:37Z</time>
      </trkpt>
      <trkpt lat="43.07574" lon="1.36313">
        <ele>329.39</ele>
        <time>2017-03-30T08:34:50Z</time>
      </trkpt>
      <trkpt lat="43.07574" lon="1.36321">
        <ele>330.83</ele>
        <time>2017-03-30T08:34:55Z</time>
      </trkpt>
      <trkpt lat="43.07573" lon="1.36337">
        <ele>332.27</ele>
        <time>2017-03-30T08:35:07Z</time>
      </trkpt>
      <trkpt lat="43.07571" lon="1.3635">
        <ele>332.75</ele>
        <time>2017-03-30T08:35:15Z</time>
      </trkpt>
      <trkpt lat="43.0757" lon="1.36352">
        <ele>332.75</ele>
        <time>2017-03-30T08:35:16Z</time>
      </trkpt>
      <trkpt lat="43.07568" lon="1.36356">
        <ele>333.23</ele>
        <time>2017-03-30T08:35:20Z</time>
      </trkpt>
      <trkpt lat="43.07568" lon="1.36358">
        <ele>333.23</ele>
        <time>2017-03-30T08:35:21Z</time>
      </trkpt>
      <trkpt lat="43.07565" lon="1.36364">
        <ele>333.71</ele>
        <time>2017-03-30T08:35:32Z</time>
      </trkpt>
      <trkpt lat="43.07566" lon="1.36379">
        <ele>334.2</ele>
        <time>2017-03-30T08:35:41Z</time>
      </trkpt>
      <trkpt lat="43.07566" lon="1.36381">
        <ele>334.2</ele>
        <time>2017-03-30T08:35:42Z</time>
      </trkpt>
      <trkpt lat="43.07565" lon="1.36383">
        <ele>334.68</ele>
        <time>2017-03-30T08:35:43Z</time>
      </trkpt>
      <trkpt lat="43.07565" lon="1.36387">
        <ele>334.68</ele>
        <time>2017-03-30T08:35:46Z</time>
      </trkpt>
      <trkpt lat="43.07564" lon="1.36389">
        <ele>334.68</ele>
        <time>2017-03-30T08:35:47Z</time>
      </trkpt>
      <trkpt lat="43.07565" lon="1.36392">
        <ele>334.68</ele>
        <time>2017-03-30T08:35:54Z</time>
      </trkpt>
      <trkpt lat="43.07564" lon="1.36398">
        <ele>334.68</ele>
        <time>2017-03-30T08:35:58Z</time>
      </trkpt>
      <trkpt lat="43.07563" lon="1.36407">
        <ele>335.16</ele>
        <time>2017-03-30T08:36:03Z</time>
      </trkpt>
      <trkpt lat="43.07562" lon="1.36409">
        <ele>335.16</ele>
        <time>2017-03-30T08:36:04Z</time>
      </trkpt>
      <trkpt lat="43.07562" lon="1.36411">
        <ele>335.16</ele>
        <time>2017-03-30T08:36:05Z</time>
      </trkpt>
      <trkpt lat="43.07559" lon="1.36424">
        <ele>336.6</ele>
        <time>2017-03-30T08:36:14Z</time>
      </trkpt>
      <trkpt lat="43.07557" lon="1.36437">
        <ele>337.08</ele>
        <time>2017-03-30T08:36:23Z</time>
      </trkpt>
      <trkpt lat="43.07557" lon="1.36452">
        <ele>337.56</ele>
        <time>2017-03-30T08:36:32Z</time>
      </trkpt>
      <trkpt lat="43.07557" lon="1.36453">
        <ele>337.56</ele>
        <time>2017-03-30T08:36:33Z</time>
      </trkpt>
      <trkpt lat="43.07557" lon="1.36456">
        <ele>337.56</ele>
        <time>2017-03-30T08:36:34Z</time>
      </trkpt>
      <trkpt lat="43.07557" lon="1.36458">
        <ele>337.56</ele>
        <time>2017-03-30T08:36:35Z</time>
      </trkpt>
      <trkpt lat="43.07557" lon="1.3646">
        <ele>337.56</ele>
        <time>2017-03-30T08:36:37Z</time>
      </trkpt>
      <trkpt lat="43.07555" lon="1.36467">
        <ele>338.52</ele>
        <time>2017-03-30T08:36:42Z</time>
      </trkpt>
      <trkpt lat="43.07555" lon="1.36469">
        <ele>338.52</ele>
        <time>2017-03-30T08:36:43Z</time>
      </trkpt>
      <trkpt lat="43.07555" lon="1.36471">
        <ele>338.52</ele>
        <time>2017-03-30T08:36:44Z</time>
      </trkpt>
      <trkpt lat="43.07555" lon="1.36474">
        <ele>338.52</ele>
        <time>2017-03-30T08:36:47Z</time>
      </trkpt>
      <trkpt lat="43.07555" lon="1.36476">
        <ele>338.52</ele>
        <time>2017-03-30T08:36:48Z</time>
      </trkpt>
      <trkpt lat="43.07555" lon="1.36478">
        <ele>338.52</ele>
        <time>2017-03-30T08:36:49Z</time>
      </trkpt>
      <trkpt lat="43.07553" lon="1.36491">
        <ele>338.52</ele>
        <time>2017-03-30T08:36:58Z</time>
      </trkpt>
      <trkpt lat="43.07553" lon="1.36493">
        <ele>338.52</ele>
        <time>2017-03-30T08:36:59Z</time>
      </trkpt>
      <trkpt lat="43.0755" lon="1.36505">
        <ele>339</ele>
        <time>2017-03-30T08:37:07Z</time>
      </trkpt>
      <trkpt lat="43.07549" lon="1.36506">
        <ele>339</ele>
        <time>2017-03-30T08:37:08Z</time>
      </trkpt>
      <trkpt lat="43.07548" lon="1.36509">
        <ele>339</ele>
        <time>2017-03-30T08:37:09Z</time>
      </trkpt>
      <trkpt lat="43.07547" lon="1.36513">
        <ele>339</ele>
        <time>2017-03-30T08:37:12Z</time>
      </trkpt>
      <trkpt lat="43.07546" lon="1.36514">
        <ele>339</ele>
        <time>2017-03-30T08:37:13Z</time>
      </trkpt>
      <trkpt lat="43.07542" lon="1.36527">
        <ele>339.96</ele>
        <time>2017-03-30T08:37:22Z</time>
      </trkpt>
      <trkpt lat="43.07542" lon="1.36529">
        <ele>339.96</ele>
        <time>2017-03-30T08:37:23Z</time>
      </trkpt>
      <trkpt lat="43.07543" lon="1.36531">
        <ele>339.96</ele>
        <time>2017-03-30T08:37:24Z</time>
      </trkpt>
      <trkpt lat="43.07544" lon="1.36534">
        <ele>339.96</ele>
        <time>2017-03-30T08:37:27Z</time>
      </trkpt>
      <trkpt lat="43.07545" lon="1.36536">
        <ele>339.96</ele>
        <time>2017-03-30T08:37:28Z</time>
      </trkpt>
      <trkpt lat="43.07545" lon="1.36539">
        <ele>339.96</ele>
        <time>2017-03-30T08:37:29Z</time>
      </trkpt>
      <trkpt lat="43.07546" lon="1.36541">
        <ele>339.96</ele>
        <time>2017-03-30T08:37:30Z</time>
      </trkpt>
      <trkpt lat="43.07548" lon="1.36544">
        <ele>339.96</ele>
        <time>2017-03-30T08:37:33Z</time>
      </trkpt>
      <trkpt lat="43.07548" lon="1.36547">
        <ele>339.96</ele>
        <time>2017-03-30T08:37:34Z</time>
      </trkpt>
      <trkpt lat="43.07548" lon="1.36549">
        <ele>339.96</ele>
        <time>2017-03-30T08:37:35Z</time>
      </trkpt>
      <trkpt lat="43.07547" lon="1.36552">
        <ele>339.96</ele>
        <time>2017-03-30T08:37:38Z</time>
      </trkpt>
      <trkpt lat="43.07547" lon="1.36554">
        <ele>339.96</ele>
        <time>2017-03-30T08:37:39Z</time>
      </trkpt>
      <trkpt lat="43.07543" lon="1.36565">
        <ele>340.92</ele>
        <time>2017-03-30T08:37:47Z</time>
      </trkpt>
      <trkpt lat="43.07542" lon="1.36567">
        <ele>340.92</ele>
        <time>2017-03-30T08:37:48Z</time>
      </trkpt>
      <trkpt lat="43.07542" lon="1.36569">
        <ele>341.41</ele>
        <time>2017-03-30T08:37:49Z</time>
      </trkpt>
      <trkpt lat="43.0754" lon="1.36581">
        <ele>342.85</ele>
        <time>2017-03-30T08:37:58Z</time>
      </trkpt>
      <trkpt lat="43.0754" lon="1.36586">
        <ele>343.81</ele>
        <time>2017-03-30T08:38:02Z</time>
      </trkpt>
      <trkpt lat="43.0754" lon="1.36587">
        <ele>344.29</ele>
        <time>2017-03-30T08:38:03Z</time>
      </trkpt>
      <trkpt lat="43.07539" lon="1.36591">
        <ele>344.77</ele>
        <time>2017-03-30T08:38:06Z</time>
      </trkpt>
      <trkpt lat="43.07538" lon="1.36592">
        <ele>344.77</ele>
        <time>2017-03-30T08:38:07Z</time>
      </trkpt>
      <trkpt lat="43.07537" lon="1.36594">
        <ele>344.77</ele>
        <time>2017-03-30T08:38:08Z</time>
      </trkpt>
      <trkpt lat="43.07538" lon="1.36596">
        <ele>345.25</ele>
        <time>2017-03-30T08:38:09Z</time>
      </trkpt>
      <trkpt lat="43.07535" lon="1.36615">
        <ele>346.69</ele>
        <time>2017-03-30T08:38:21Z</time>
      </trkpt>
      <trkpt lat="43.07535" lon="1.36617">
        <ele>346.69</ele>
        <time>2017-03-30T08:38:22Z</time>
      </trkpt>
      <trkpt lat="43.07534" lon="1.36618">
        <ele>346.69</ele>
        <time>2017-03-30T08:38:23Z</time>
      </trkpt>
      <trkpt lat="43.07534" lon="1.3662">
        <ele>346.69</ele>
        <time>2017-03-30T08:38:25Z</time>
      </trkpt>
      <trkpt lat="43.07533" lon="1.36622">
        <ele>347.17</ele>
        <time>2017-03-30T08:38:26Z</time>
      </trkpt>
      <trkpt lat="43.07531" lon="1.3663">
        <ele>347.17</ele>
        <time>2017-03-30T08:38:32Z</time>
      </trkpt>
      <trkpt lat="43.0753" lon="1.36632">
        <ele>347.17</ele>
        <time>2017-03-30T08:38:33Z</time>
      </trkpt>
      <trkpt lat="43.07529" lon="1.36633">
        <ele>347.17</ele>
        <time>2017-03-30T08:38:34Z</time>
      </trkpt>
      <trkpt lat="43.07524" lon="1.36653">
        <ele>347.65</ele>
        <time>2017-03-30T08:38:47Z</time>
      </trkpt>
      <trkpt lat="43.07522" lon="1.36665">
        <ele>347.17</ele>
        <time>2017-03-30T08:38:56Z</time>
      </trkpt>
      <trkpt lat="43.07521" lon="1.36668">
        <ele>347.17</ele>
        <time>2017-03-30T08:38:57Z</time>
      </trkpt>
      <trkpt lat="43.07521" lon="1.36671">
        <ele>346.21</ele>
        <time>2017-03-30T08:38:58Z</time>
      </trkpt>
      <trkpt lat="43.07521" lon="1.36674">
        <ele>346.21</ele>
        <time>2017-03-30T08:38:59Z</time>
      </trkpt>
      <trkpt lat="43.07521" lon="1.36678">
        <ele>345.73</ele>
        <time>2017-03-30T08:39:03Z</time>
      </trkpt>
      <trkpt lat="43.0752" lon="1.36681">
        <ele>345.73</ele>
        <time>2017-03-30T08:39:04Z</time>
      </trkpt>
      <trkpt lat="43.0752" lon="1.36684">
        <ele>345.73</ele>
        <time>2017-03-30T08:39:05Z</time>
      </trkpt>
      <trkpt lat="43.07519" lon="1.36697">
        <ele>345.25</ele>
        <time>2017-03-30T08:39:13Z</time>
      </trkpt>
      <trkpt lat="43.07515" lon="1.36712">
        <ele>345.25</ele>
        <time>2017-03-30T08:39:22Z</time>
      </trkpt>
      <trkpt lat="43.07515" lon="1.36715">
        <ele>345.25</ele>
        <time>2017-03-30T08:39:25Z</time>
      </trkpt>
      <trkpt lat="43.07515" lon="1.36717">
        <ele>345.25</ele>
        <time>2017-03-30T08:39:26Z</time>
      </trkpt>
      <trkpt lat="43.07514" lon="1.3672">
        <ele>345.25</ele>
        <time>2017-03-30T08:39:27Z</time>
      </trkpt>
      <trkpt lat="43.07511" lon="1.36735">
        <ele>346.21</ele>
        <time>2017-03-30T08:39:36Z</time>
      </trkpt>
      <trkpt lat="43.07511" lon="1.36737">
        <ele>346.21</ele>
        <time>2017-03-30T08:39:37Z</time>
      </trkpt>
      <trkpt lat="43.07511" lon="1.3674">
        <ele>346.21</ele>
        <time>2017-03-30T08:39:38Z</time>
      </trkpt>
      <trkpt lat="43.0751" lon="1.36743">
        <ele>346.21</ele>
        <time>2017-03-30T08:39:41Z</time>
      </trkpt>
      <trkpt lat="43.0751" lon="1.36745">
        <ele>346.69</ele>
        <time>2017-03-30T08:39:42Z</time>
      </trkpt>
      <trkpt lat="43.0751" lon="1.36748">
        <ele>346.69</ele>
        <time>2017-03-30T08:39:43Z</time>
      </trkpt>
      <trkpt lat="43.0751" lon="1.36749">
        <ele>346.69</ele>
        <time>2017-03-30T08:39:44Z</time>
      </trkpt>
      <trkpt lat="43.07509" lon="1.36762">
        <ele>347.17</ele>
        <time>2017-03-30T08:39:52Z</time>
      </trkpt>
      <trkpt lat="43.07509" lon="1.36764">
        <ele>347.17</ele>
        <time>2017-03-30T08:39:53Z</time>
      </trkpt>
      <trkpt lat="43.07508" lon="1.36767">
        <ele>347.17</ele>
        <time>2017-03-30T08:39:54Z</time>
      </trkpt>
      <trkpt lat="43.07508" lon="1.36769">
        <ele>347.17</ele>
        <time>2017-03-30T08:39:55Z</time>
      </trkpt>
      <trkpt lat="43.07507" lon="1.36772">
        <ele>347.17</ele>
        <time>2017-03-30T08:39:58Z</time>
      </trkpt>
      <trkpt lat="43.07507" lon="1.36774">
        <ele>347.17</ele>
        <time>2017-03-30T08:39:59Z</time>
      </trkpt>
      <trkpt lat="43.07506" lon="1.36777">
        <ele>347.17</ele>
        <time>2017-03-30T08:40:00Z</time>
      </trkpt>
      <trkpt lat="43.07504" lon="1.36788">
        <ele>348.62</ele>
        <time>2017-03-30T08:40:08Z</time>
      </trkpt>
      <trkpt lat="43.07503" lon="1.3679">
        <ele>348.62</ele>
        <time>2017-03-30T08:40:09Z</time>
      </trkpt>
      <trkpt lat="43.07501" lon="1.36794">
        <ele>349.58</ele>
        <time>2017-03-30T08:40:13Z</time>
      </trkpt>
      <trkpt lat="43.075" lon="1.36796">
        <ele>349.58</ele>
        <time>2017-03-30T08:40:14Z</time>
      </trkpt>
      <trkpt lat="43.07499" lon="1.36797">
        <ele>349.58</ele>
        <time>2017-03-30T08:40:15Z</time>
      </trkpt>
      <trkpt lat="43.07494" lon="1.3681">
        <ele>351.02</ele>
        <time>2017-03-30T08:40:24Z</time>
      </trkpt>
      <trkpt lat="43.07491" lon="1.36815">
        <ele>351.5</ele>
        <time>2017-03-30T08:40:28Z</time>
      </trkpt>
      <trkpt lat="43.0749" lon="1.36816">
        <ele>351.5</ele>
        <time>2017-03-30T08:40:29Z</time>
      </trkpt>
      <trkpt lat="43.0749" lon="1.36818">
        <ele>351.5</ele>
        <time>2017-03-30T08:40:30Z</time>
      </trkpt>
      <trkpt lat="43.07484" lon="1.36831">
        <ele>352.94</ele>
        <time>2017-03-30T08:40:41Z</time>
      </trkpt>
      <trkpt lat="43.07481" lon="1.36844">
        <ele>354.38</ele>
        <time>2017-03-30T08:40:51Z</time>
      </trkpt>
      <trkpt lat="43.07476" lon="1.3686">
        <ele>355.83</ele>
        <time>2017-03-30T08:41:03Z</time>
      </trkpt>
      <trkpt lat="43.07472" lon="1.36871">
        <ele>356.79</ele>
        <time>2017-03-30T08:41:11Z</time>
      </trkpt>
      <trkpt lat="43.07467" lon="1.3688">
        <ele>357.75</ele>
        <time>2017-03-30T08:41:21Z</time>
      </trkpt>
      <trkpt lat="43.0746" lon="1.36896">
        <ele>359.19</ele>
        <time>2017-03-30T08:41:35Z</time>
      </trkpt>
      <trkpt lat="43.07455" lon="1.36915">
        <ele>360.63</ele>
        <time>2017-03-30T08:41:49Z</time>
      </trkpt>
      <trkpt lat="43.0745" lon="1.36929">
        <ele>361.11</ele>
        <time>2017-03-30T08:41:59Z</time>
      </trkpt>
      <trkpt lat="43.07449" lon="1.36945">
        <ele>362.55</ele>
        <time>2017-03-30T08:42:09Z</time>
      </trkpt>
      <trkpt lat="43.07449" lon="1.36947">
        <ele>362.55</ele>
        <time>2017-03-30T08:42:11Z</time>
      </trkpt>
      <trkpt lat="43.07449" lon="1.36951">
        <ele>363.04</ele>
        <time>2017-03-30T08:42:14Z</time>
      </trkpt>
      <trkpt lat="43.07447" lon="1.36968">
        <ele>363.52</ele>
        <time>2017-03-30T08:42:24Z</time>
      </trkpt>
      <trkpt lat="43.07444" lon="1.36974">
        <ele>364.48</ele>
        <time>2017-03-30T08:42:30Z</time>
      </trkpt>
      <trkpt lat="43.07441" lon="1.36979">
        <ele>364.96</ele>
        <time>2017-03-30T08:42:35Z</time>
      </trkpt>
      <trkpt lat="43.07437" lon="1.36984">
        <ele>365.44</ele>
        <time>2017-03-30T08:42:39Z</time>
      </trkpt>
      <trkpt lat="43.07433" lon="1.36995">
        <ele>365.92</ele>
        <time>2017-03-30T08:42:48Z</time>
      </trkpt>
      <trkpt lat="43.07426" lon="1.37009">
        <ele>368.32</ele>
        <time>2017-03-30T08:43:02Z</time>
      </trkpt>
      <trkpt lat="43.07422" lon="1.37018">
        <ele>369.28</ele>
        <time>2017-03-30T08:43:10Z</time>
      </trkpt>
      <trkpt lat="43.07419" lon="1.37024">
        <ele>369.76</ele>
        <time>2017-03-30T08:43:15Z</time>
      </trkpt>
      <trkpt lat="43.07413" lon="1.37045">
        <ele>373.13</ele>
        <time>2017-03-30T08:43:31Z</time>
      </trkpt>
      <trkpt lat="43.07411" lon="1.37051">
        <ele>374.09</ele>
        <time>2017-03-30T08:43:47Z</time>
      </trkpt>
      <trkpt lat="43.07411" lon="1.37058">
        <ele>374.09</ele>
        <time>2017-03-30T08:44:15Z</time>
      </trkpt>
      <trkpt lat="43.07412" lon="1.37071">
        <ele>374.57</ele>
        <time>2017-03-30T08:44:36Z</time>
      </trkpt>
      <trkpt lat="43.07412" lon="1.37076">
        <ele>374.57</ele>
        <time>2017-03-30T08:44:47Z</time>
      </trkpt>
      <trkpt lat="43.07412" lon="1.37083">
        <ele>374.57</ele>
        <time>2017-03-30T08:44:52Z</time>
      </trkpt>
      <trkpt lat="43.07413" lon="1.37096">
        <ele>373.13</ele>
        <time>2017-03-30T08:45:02Z</time>
      </trkpt>
      <trkpt lat="43.07412" lon="1.37099">
        <ele>373.13</ele>
        <time>2017-03-30T08:45:04Z</time>
      </trkpt>
      <trkpt lat="43.07413" lon="1.37119">
        <ele>372.65</ele>
        <time>2017-03-30T08:45:16Z</time>
      </trkpt>
      <trkpt lat="43.07413" lon="1.37121">
        <ele>372.65</ele>
        <time>2017-03-30T08:45:18Z</time>
      </trkpt>
      <trkpt lat="43.07413" lon="1.37129">
        <ele>372.65</ele>
        <time>2017-03-30T08:45:23Z</time>
      </trkpt>
      <trkpt lat="43.07415" lon="1.37141">
        <ele>372.17</ele>
        <time>2017-03-30T08:45:35Z</time>
      </trkpt>
      <trkpt lat="43.07415" lon="1.37146">
        <ele>373.61</ele>
        <time>2017-03-30T08:45:55Z</time>
      </trkpt>
      <trkpt lat="43.07415" lon="1.37151">
        <ele>373.61</ele>
        <time>2017-03-30T08:45:59Z</time>
      </trkpt>
      <trkpt lat="43.0742" lon="1.3717">
        <ele>374.57</ele>
        <time>2017-03-30T08:46:12Z</time>
      </trkpt>
      <trkpt lat="43.07427" lon="1.37186">
        <ele>375.05</ele>
        <time>2017-03-30T08:46:24Z</time>
      </trkpt>
      <trkpt lat="43.07427" lon="1.37188">
        <ele>375.05</ele>
        <time>2017-03-30T08:46:42Z</time>
      </trkpt>
      <trkpt lat="43.07428" lon="1.3719">
        <ele>375.05</ele>
        <time>2017-03-30T08:46:47Z</time>
      </trkpt>
      <trkpt lat="43.07428" lon="1.37194">
        <ele>375.05</ele>
        <time>2017-03-30T08:46:49Z</time>
      </trkpt>
      <trkpt lat="43.07428" lon="1.37196">
        <ele>375.05</ele>
        <time>2017-03-30T08:46:50Z</time>
      </trkpt>
      <trkpt lat="43.07429" lon="1.37199">
        <ele>374.57</ele>
        <time>2017-03-30T08:46:53Z</time>
      </trkpt>
      <trkpt lat="43.07429" lon="1.37201">
        <ele>375.05</ele>
        <time>2017-03-30T08:46:54Z</time>
      </trkpt>
      <trkpt lat="43.0743" lon="1.37204">
        <ele>374.57</ele>
        <time>2017-03-30T08:46:55Z</time>
      </trkpt>
      <trkpt lat="43.07431" lon="1.37206">
        <ele>374.57</ele>
        <time>2017-03-30T08:46:56Z</time>
      </trkpt>
      <trkpt lat="43.07432" lon="1.3721">
        <ele>374.57</ele>
        <time>2017-03-30T08:46:59Z</time>
      </trkpt>
      <trkpt lat="43.07432" lon="1.37212">
        <ele>374.57</ele>
        <time>2017-03-30T08:47:00Z</time>
      </trkpt>
      <trkpt lat="43.07433" lon="1.37222">
        <ele>373.61</ele>
        <time>2017-03-30T08:47:07Z</time>
      </trkpt>
      <trkpt lat="43.07436" lon="1.37239">
        <ele>372.65</ele>
        <time>2017-03-30T08:47:19Z</time>
      </trkpt>
      <trkpt lat="43.07438" lon="1.37247">
        <ele>372.17</ele>
        <time>2017-03-30T08:47:24Z</time>
      </trkpt>
      <trkpt lat="43.07438" lon="1.37249">
        <ele>372.17</ele>
        <time>2017-03-30T08:47:25Z</time>
      </trkpt>
      <trkpt lat="43.07434" lon="1.37254">
        <ele>372.17</ele>
        <time>2017-03-30T08:47:35Z</time>
      </trkpt>
      <trkpt lat="43.07433" lon="1.37256">
        <ele>372.17</ele>
        <time>2017-03-30T08:47:36Z</time>
      </trkpt>
      <trkpt lat="43.07432" lon="1.37259">
        <ele>371.69</ele>
        <time>2017-03-30T08:47:39Z</time>
      </trkpt>
      <trkpt lat="43.07431" lon="1.37261">
        <ele>371.69</ele>
        <time>2017-03-30T08:47:40Z</time>
      </trkpt>
      <trkpt lat="43.07429" lon="1.37263">
        <ele>371.69</ele>
        <time>2017-03-30T08:47:41Z</time>
      </trkpt>
      <trkpt lat="43.07428" lon="1.37264">
        <ele>371.69</ele>
        <time>2017-03-30T08:47:42Z</time>
      </trkpt>
      <trkpt lat="43.07427" lon="1.37267">
        <ele>371.69</ele>
        <time>2017-03-30T08:47:57Z</time>
      </trkpt>
      <trkpt lat="43.07423" lon="1.37267">
        <ele>371.69</ele>
        <time>2017-03-30T08:48:07Z</time>
      </trkpt>
      <trkpt lat="43.07404" lon="1.37259">
        <ele>374.09</ele>
        <time>2017-03-30T08:48:26Z</time>
      </trkpt>
      <trkpt lat="43.07394" lon="1.3726">
        <ele>375.05</ele>
        <time>2017-03-30T08:48:37Z</time>
      </trkpt>
      <trkpt lat="43.07392" lon="1.37261">
        <ele>375.53</ele>
        <time>2017-03-30T08:48:38Z</time>
      </trkpt>
      <trkpt lat="43.07391" lon="1.37262">
        <ele>375.53</ele>
        <time>2017-03-30T08:48:39Z</time>
      </trkpt>
      <trkpt lat="43.0739" lon="1.37262">
        <ele>375.53</ele>
        <time>2017-03-30T08:48:40Z</time>
      </trkpt>
      <trkpt lat="43.07379" lon="1.37271">
        <ele>376.01</ele>
        <time>2017-03-30T08:48:52Z</time>
      </trkpt>
      <trkpt lat="43.07378" lon="1.37272">
        <ele>376.01</ele>
        <time>2017-03-30T08:48:53Z</time>
      </trkpt>
      <trkpt lat="43.07377" lon="1.37273">
        <ele>376.01</ele>
        <time>2017-03-30T08:48:54Z</time>
      </trkpt>
      <trkpt lat="43.07376" lon="1.37274">
        <ele>376.97</ele>
        <time>2017-03-30T08:48:55Z</time>
      </trkpt>
      <trkpt lat="43.0737" lon="1.3728">
        <ele>377.45</ele>
        <time>2017-03-30T08:49:02Z</time>
      </trkpt>
      <trkpt lat="43.07368" lon="1.37281">
        <ele>377.94</ele>
        <time>2017-03-30T08:49:03Z</time>
      </trkpt>
      <trkpt lat="43.07367" lon="1.37282">
        <ele>377.94</ele>
        <time>2017-03-30T08:49:04Z</time>
      </trkpt>
      <trkpt lat="43.07358" lon="1.37289">
        <ele>379.86</ele>
        <time>2017-03-30T08:49:14Z</time>
      </trkpt>
      <trkpt lat="43.07349" lon="1.37296">
        <ele>381.78</ele>
        <time>2017-03-30T08:49:25Z</time>
      </trkpt>
      <trkpt lat="43.0734" lon="1.37304">
        <ele>383.22</ele>
        <time>2017-03-30T08:49:36Z</time>
      </trkpt>
      <trkpt lat="43.07339" lon="1.37306">
        <ele>384.18</ele>
        <time>2017-03-30T08:49:38Z</time>
      </trkpt>
      <trkpt lat="43.07337" lon="1.37307">
        <ele>384.18</ele>
        <time>2017-03-30T08:49:39Z</time>
      </trkpt>
      <trkpt lat="43.07336" lon="1.37308">
        <ele>384.66</ele>
        <time>2017-03-30T08:49:40Z</time>
      </trkpt>
      <trkpt lat="43.07327" lon="1.37316">
        <ele>386.11</ele>
        <time>2017-03-30T08:49:50Z</time>
      </trkpt>
      <trkpt lat="43.07325" lon="1.37318">
        <ele>386.59</ele>
        <time>2017-03-30T08:49:53Z</time>
      </trkpt>
      <trkpt lat="43.0732" lon="1.37321">
        <ele>387.07</ele>
        <time>2017-03-30T08:49:58Z</time>
      </trkpt>
      <trkpt lat="43.07319" lon="1.37323">
        <ele>387.07</ele>
        <time>2017-03-30T08:49:59Z</time>
      </trkpt>
      <trkpt lat="43.07314" lon="1.37331">
        <ele>388.51</ele>
        <time>2017-03-30T08:50:07Z</time>
      </trkpt>
      <trkpt lat="43.07313" lon="1.37332">
        <ele>388.51</ele>
        <time>2017-03-30T08:50:08Z</time>
      </trkpt>
      <trkpt lat="43.07305" lon="1.37343">
        <ele>389.95</ele>
        <time>2017-03-30T08:50:18Z</time>
      </trkpt>
      <trkpt lat="43.07303" lon="1.37345">
        <ele>389.95</ele>
        <time>2017-03-30T08:50:19Z</time>
      </trkpt>
      <trkpt lat="43.073" lon="1.37349">
        <ele>389.95</ele>
        <time>2017-03-30T08:50:23Z</time>
      </trkpt>
      <trkpt lat="43.07299" lon="1.3735">
        <ele>389.95</ele>
        <time>2017-03-30T08:50:24Z</time>
      </trkpt>
      <trkpt lat="43.07297" lon="1.37351">
        <ele>390.43</ele>
        <time>2017-03-30T08:50:25Z</time>
      </trkpt>
      <trkpt lat="43.07296" lon="1.37352">
        <ele>390.43</ele>
        <time>2017-03-30T08:50:26Z</time>
      </trkpt>
      <trkpt lat="43.07295" lon="1.37354">
        <ele>390.43</ele>
        <time>2017-03-30T08:50:29Z</time>
      </trkpt>
      <trkpt lat="43.07293" lon="1.37355">
        <ele>390.43</ele>
        <time>2017-03-30T08:50:30Z</time>
      </trkpt>
      <trkpt lat="43.07291" lon="1.37356">
        <ele>390.43</ele>
        <time>2017-03-30T08:50:31Z</time>
      </trkpt>
      <trkpt lat="43.0729" lon="1.37357">
        <ele>390.43</ele>
        <time>2017-03-30T08:50:32Z</time>
      </trkpt>
      <trkpt lat="43.07281" lon="1.37367">
        <ele>390.43</ele>
        <time>2017-03-30T08:50:42Z</time>
      </trkpt>
      <trkpt lat="43.07267" lon="1.37378">
        <ele>390.91</ele>
        <time>2017-03-30T08:50:53Z</time>
      </trkpt>
      <trkpt lat="43.07256" lon="1.37388">
        <ele>390.91</ele>
        <time>2017-03-30T08:51:03Z</time>
      </trkpt>
      <trkpt lat="43.07234" lon="1.37407">
        <ele>391.39</ele>
        <time>2017-03-30T08:51:23Z</time>
      </trkpt>
      <trkpt lat="43.07221" lon="1.3743">
        <ele>392.36</ele>
        <time>2017-03-30T08:51:40Z</time>
      </trkpt>
      <trkpt lat="43.07216" lon="1.37441">
        <ele>392.36</ele>
        <time>2017-03-30T08:51:48Z</time>
      </trkpt>
      <trkpt lat="43.07215" lon="1.37443">
        <ele>392.36</ele>
        <time>2017-03-30T08:51:49Z</time>
      </trkpt>
      <trkpt lat="43.07214" lon="1.37445">
        <ele>392.36</ele>
        <time>2017-03-30T08:51:50Z</time>
      </trkpt>
      <trkpt lat="43.07213" lon="1.37447">
        <ele>392.36</ele>
        <time>2017-03-30T08:51:51Z</time>
      </trkpt>
      <trkpt lat="43.0721" lon="1.37462">
        <ele>392.36</ele>
        <time>2017-03-30T08:52:00Z</time>
      </trkpt>
      <trkpt lat="43.0721" lon="1.37469">
        <ele>393.8</ele>
        <time>2017-03-30T08:52:49Z</time>
      </trkpt>
      <trkpt lat="43.07208" lon="1.37473">
        <ele>393.8</ele>
        <time>2017-03-30T08:53:42Z</time>
      </trkpt>
      <trkpt lat="43.07207" lon="1.37476">
        <ele>393.8</ele>
        <time>2017-03-30T08:53:45Z</time>
      </trkpt>
      <trkpt lat="43.07205" lon="1.37478">
        <ele>393.8</ele>
        <time>2017-03-30T08:53:46Z</time>
      </trkpt>
      <trkpt lat="43.072" lon="1.37491">
        <ele>393.8</ele>
        <time>2017-03-30T08:53:54Z</time>
      </trkpt>
      <trkpt lat="43.07199" lon="1.37494">
        <ele>394.28</ele>
        <time>2017-03-30T08:53:57Z</time>
      </trkpt>
      <trkpt lat="43.07198" lon="1.37496">
        <ele>394.76</ele>
        <time>2017-03-30T08:53:58Z</time>
      </trkpt>
      <trkpt lat="43.07198" lon="1.37498">
        <ele>394.76</ele>
        <time>2017-03-30T08:53:59Z</time>
      </trkpt>
      <trkpt lat="43.07198" lon="1.375">
        <ele>394.76</ele>
        <time>2017-03-30T08:54:00Z</time>
      </trkpt>
      <trkpt lat="43.07194" lon="1.3751">
        <ele>395.24</ele>
        <time>2017-03-30T08:54:08Z</time>
      </trkpt>
      <trkpt lat="43.07194" lon="1.37512">
        <ele>395.24</ele>
        <time>2017-03-30T08:54:09Z</time>
      </trkpt>
      <trkpt lat="43.07193" lon="1.37513">
        <ele>396.2</ele>
        <time>2017-03-30T08:54:10Z</time>
      </trkpt>
      <trkpt lat="43.07192" lon="1.37515">
        <ele>396.2</ele>
        <time>2017-03-30T08:54:11Z</time>
      </trkpt>
      <trkpt lat="43.07191" lon="1.37517">
        <ele>396.2</ele>
        <time>2017-03-30T08:54:12Z</time>
      </trkpt>
      <trkpt lat="43.07191" lon="1.37519">
        <ele>396.68</ele>
        <time>2017-03-30T08:54:13Z</time>
      </trkpt>
      <trkpt lat="43.0719" lon="1.37521">
        <ele>396.68</ele>
        <time>2017-03-30T08:54:14Z</time>
      </trkpt>
      <trkpt lat="43.07191" lon="1.37523">
        <ele>396.68</ele>
        <time>2017-03-30T08:54:15Z</time>
      </trkpt>
      <trkpt lat="43.0719" lon="1.37524">
        <ele>396.68</ele>
        <time>2017-03-30T08:54:16Z</time>
      </trkpt>
      <trkpt lat="43.07189" lon="1.37526">
        <ele>396.68</ele>
        <time>2017-03-30T08:54:17Z</time>
      </trkpt>
      <trkpt lat="43.07188" lon="1.37528">
        <ele>396.68</ele>
        <time>2017-03-30T08:54:18Z</time>
      </trkpt>
      <trkpt lat="43.07182" lon="1.37541">
        <ele>397.16</ele>
        <time>2017-03-30T08:54:28Z</time>
      </trkpt>
      <trkpt lat="43.07172" lon="1.37556">
        <ele>397.16</ele>
        <time>2017-03-30T08:54:39Z</time>
      </trkpt>
      <trkpt lat="43.07165" lon="1.37567">
        <ele>397.64</ele>
        <time>2017-03-30T08:54:48Z</time>
      </trkpt>
      <trkpt lat="43.07159" lon="1.37576">
        <ele>397.64</ele>
        <time>2017-03-30T08:54:55Z</time>
      </trkpt>
      <trkpt lat="43.07158" lon="1.37578">
        <ele>397.64</ele>
        <time>2017-03-30T08:54:56Z</time>
      </trkpt>
      <trkpt lat="43.07157" lon="1.3758">
        <ele>397.64</ele>
        <time>2017-03-30T08:54:57Z</time>
      </trkpt>
      <trkpt lat="43.07156" lon="1.37582">
        <ele>398.12</ele>
        <time>2017-03-30T08:54:58Z</time>
      </trkpt>
      <trkpt lat="43.07155" lon="1.37583">
        <ele>398.12</ele>
        <time>2017-03-30T08:54:59Z</time>
      </trkpt>
      <trkpt lat="43.07148" lon="1.37596">
        <ele>398.6</ele>
        <time>2017-03-30T08:55:34Z</time>
      </trkpt>
      <trkpt lat="43.07142" lon="1.37609">
        <ele>398.6</ele>
        <time>2017-03-30T08:55:43Z</time>
      </trkpt>
      <trkpt lat="43.07141" lon="1.37611">
        <ele>398.6</ele>
        <time>2017-03-30T08:55:44Z</time>
      </trkpt>
      <trkpt lat="43.0714" lon="1.37613">
        <ele>398.6</ele>
        <time>2017-03-30T08:55:45Z</time>
      </trkpt>
      <trkpt lat="43.07139" lon="1.37615">
        <ele>398.6</ele>
        <time>2017-03-30T08:55:46Z</time>
      </trkpt>
      <trkpt lat="43.07138" lon="1.37617">
        <ele>398.6</ele>
        <time>2017-03-30T08:55:47Z</time>
      </trkpt>
      <trkpt lat="43.0713" lon="1.3763">
        <ele>398.6</ele>
        <time>2017-03-30T08:55:57Z</time>
      </trkpt>
      <trkpt lat="43.07119" lon="1.37642">
        <ele>398.12</ele>
        <time>2017-03-30T08:56:08Z</time>
      </trkpt>
      <trkpt lat="43.07115" lon="1.37646">
        <ele>398.6</ele>
        <time>2017-03-30T08:56:13Z</time>
      </trkpt>
      <trkpt lat="43.07113" lon="1.37647">
        <ele>398.6</ele>
        <time>2017-03-30T08:56:14Z</time>
      </trkpt>
      <trkpt lat="43.07107" lon="1.3765">
        <ele>398.6</ele>
        <time>2017-03-30T08:56:20Z</time>
      </trkpt>
      <trkpt lat="43.07105" lon="1.37651">
        <ele>398.6</ele>
        <time>2017-03-30T08:56:21Z</time>
      </trkpt>
      <trkpt lat="43.07103" lon="1.37652">
        <ele>398.6</ele>
        <time>2017-03-30T08:56:22Z</time>
      </trkpt>
      <trkpt lat="43.07089" lon="1.37657">
        <ele>400.05</ele>
        <time>2017-03-30T08:56:34Z</time>
      </trkpt>
      <trkpt lat="43.07077" lon="1.37662">
        <ele>401.49</ele>
        <time>2017-03-30T08:57:12Z</time>
      </trkpt>
      <trkpt lat="43.07064" lon="1.3767">
        <ele>402.45</ele>
        <time>2017-03-30T08:57:23Z</time>
      </trkpt>
      <trkpt lat="43.07061" lon="1.37672">
        <ele>401.97</ele>
        <time>2017-03-30T08:57:27Z</time>
      </trkpt>
      <trkpt lat="43.07059" lon="1.37673">
        <ele>402.45</ele>
        <time>2017-03-30T08:57:28Z</time>
      </trkpt>
      <trkpt lat="43.07053" lon="1.37677">
        <ele>402.45</ele>
        <time>2017-03-30T08:57:34Z</time>
      </trkpt>
      <trkpt lat="43.07052" lon="1.37678">
        <ele>402.45</ele>
        <time>2017-03-30T08:57:35Z</time>
      </trkpt>
      <trkpt lat="43.0705" lon="1.37679">
        <ele>402.45</ele>
        <time>2017-03-30T08:57:36Z</time>
      </trkpt>
      <trkpt lat="43.07043" lon="1.37682">
        <ele>402.45</ele>
        <time>2017-03-30T08:57:42Z</time>
      </trkpt>
      <trkpt lat="43.0704" lon="1.37683">
        <ele>402.45</ele>
        <time>2017-03-30T08:57:43Z</time>
      </trkpt>
      <trkpt lat="43.07039" lon="1.37684">
        <ele>402.45</ele>
        <time>2017-03-30T08:57:44Z</time>
      </trkpt>
      <trkpt lat="43.07037" lon="1.37684">
        <ele>402.45</ele>
        <time>2017-03-30T08:57:45Z</time>
      </trkpt>
      <trkpt lat="43.07036" lon="1.37685">
        <ele>402.45</ele>
        <time>2017-03-30T08:57:46Z</time>
      </trkpt>
      <trkpt lat="43.07015" lon="1.37695">
        <ele>401.49</ele>
        <time>2017-03-30T08:58:03Z</time>
      </trkpt>
      <trkpt lat="43.07004" lon="1.377">
        <ele>401.49</ele>
        <time>2017-03-30T08:58:12Z</time>
      </trkpt>
      <trkpt lat="43.07" lon="1.37703">
        <ele>401.49</ele>
        <time>2017-03-30T08:58:25Z</time>
      </trkpt>
      <trkpt lat="43.06997" lon="1.37704">
        <ele>401.49</ele>
        <time>2017-03-30T08:58:49Z</time>
      </trkpt>
      <trkpt lat="43.06992" lon="1.37703">
        <ele>401.49</ele>
        <time>2017-03-30T08:58:54Z</time>
      </trkpt>
      <trkpt lat="43.0699" lon="1.37704">
        <ele>401.01</ele>
        <time>2017-03-30T08:59:07Z</time>
      </trkpt>
      <trkpt lat="43.06983" lon="1.37706">
        <ele>402.45</ele>
        <time>2017-03-30T08:59:29Z</time>
      </trkpt>
      <trkpt lat="43.06971" lon="1.37706">
        <ele>402.45</ele>
        <time>2017-03-30T08:59:44Z</time>
      </trkpt>
      <trkpt lat="43.06956" lon="1.37706">
        <ele>403.89</ele>
        <time>2017-03-30T08:59:56Z</time>
      </trkpt>
      <trkpt lat="43.06942" lon="1.37705">
        <ele>404.85</ele>
        <time>2017-03-30T09:00:06Z</time>
      </trkpt>
      <trkpt lat="43.06938" lon="1.37706">
        <ele>405.81</ele>
        <time>2017-03-30T09:00:10Z</time>
      </trkpt>
      <trkpt lat="43.06936" lon="1.37706">
        <ele>405.81</ele>
        <time>2017-03-30T09:00:11Z</time>
      </trkpt>
      <trkpt lat="43.06924" lon="1.37708">
        <ele>406.29</ele>
        <time>2017-03-30T09:00:21Z</time>
      </trkpt>
      <trkpt lat="43.06906" lon="1.37717">
        <ele>407.26</ele>
        <time>2017-03-30T09:00:38Z</time>
      </trkpt>
      <trkpt lat="43.06905" lon="1.37717">
        <ele>407.26</ele>
        <time>2017-03-30T09:00:40Z</time>
      </trkpt>
      <trkpt lat="43.06901" lon="1.37719">
        <ele>406.29</ele>
        <time>2017-03-30T09:00:47Z</time>
      </trkpt>
      <trkpt lat="43.069" lon="1.3772">
        <ele>406.29</ele>
        <time>2017-03-30T09:00:48Z</time>
      </trkpt>
      <trkpt lat="43.06902" lon="1.37719">
        <ele>405.81</ele>
        <time>2017-03-30T09:00:58Z</time>
      </trkpt>
      <trkpt lat="43.06899" lon="1.3772">
        <ele>406.77</ele>
        <time>2017-03-30T09:01:23Z</time>
      </trkpt>
      <trkpt lat="43.06889" lon="1.37723">
        <ele>405.33</ele>
        <time>2017-03-30T09:01:31Z</time>
      </trkpt>
      <trkpt lat="43.06875" lon="1.37731">
        <ele>403.89</ele>
        <time>2017-03-30T09:01:44Z</time>
      </trkpt>
      <trkpt lat="43.06874" lon="1.37732">
        <ele>403.41</ele>
        <time>2017-03-30T09:01:45Z</time>
      </trkpt>
      <trkpt lat="43.06865" lon="1.37739">
        <ele>402.45</ele>
        <time>2017-03-30T09:02:56Z</time>
      </trkpt>
      <trkpt lat="43.06864" lon="1.37739">
        <ele>402.45</ele>
        <time>2017-03-30T09:02:57Z</time>
      </trkpt>
      <trkpt lat="43.06856" lon="1.37744">
        <ele>401.97</ele>
        <time>2017-03-30T09:03:13Z</time>
      </trkpt>
      <trkpt lat="43.06848" lon="1.37748">
        <ele>401.49</ele>
        <time>2017-03-30T09:03:21Z</time>
      </trkpt>
      <trkpt lat="43.06845" lon="1.37748">
        <ele>401.01</ele>
        <time>2017-03-30T09:03:23Z</time>
      </trkpt>
      <trkpt lat="43.06843" lon="1.37749">
        <ele>401.01</ele>
        <time>2017-03-30T09:03:25Z</time>
      </trkpt>
      <trkpt lat="43.06838" lon="1.37747">
        <ele>400.05</ele>
        <time>2017-03-30T09:03:53Z</time>
      </trkpt>
      <trkpt lat="43.06837" lon="1.37746">
        <ele>399.08</ele>
        <time>2017-03-30T09:04:03Z</time>
      </trkpt>
      <trkpt lat="43.06836" lon="1.37746">
        <ele>399.08</ele>
        <time>2017-03-30T09:04:12Z</time>
      </trkpt>
      <trkpt lat="43.06836" lon="1.37743">
        <ele>399.08</ele>
        <time>2017-03-30T09:04:41Z</time>
      </trkpt>
      <trkpt lat="43.06835" lon="1.37737">
        <ele>401.01</ele>
        <time>2017-03-30T09:04:53Z</time>
      </trkpt>
      <trkpt lat="43.06826" lon="1.37725">
        <ele>403.41</ele>
        <time>2017-03-30T09:05:06Z</time>
      </trkpt>
      <trkpt lat="43.0682" lon="1.37717">
        <ele>404.37</ele>
        <time>2017-03-30T09:05:15Z</time>
      </trkpt>
      <trkpt lat="43.06819" lon="1.37716">
        <ele>404.85</ele>
        <time>2017-03-30T09:05:16Z</time>
      </trkpt>
      <trkpt lat="43.06818" lon="1.37715">
        <ele>404.85</ele>
        <time>2017-03-30T09:05:17Z</time>
      </trkpt>
      <trkpt lat="43.06817" lon="1.37715">
        <ele>404.85</ele>
        <time>2017-03-30T09:05:18Z</time>
      </trkpt>
      <trkpt lat="43.06811" lon="1.37712">
        <ele>404.85</ele>
        <time>2017-03-30T09:05:33Z</time>
      </trkpt>
      <trkpt lat="43.06798" lon="1.37704">
        <ele>404.85</ele>
        <time>2017-03-30T09:05:45Z</time>
      </trkpt>
      <trkpt lat="43.0678" lon="1.37696">
        <ele>403.89</ele>
        <time>2017-03-30T09:06:00Z</time>
      </trkpt>
      <trkpt lat="43.06761" lon="1.37688">
        <ele>401.01</ele>
        <time>2017-03-30T09:06:15Z</time>
      </trkpt>
      <trkpt lat="43.0674" lon="1.37678">
        <ele>399.57</ele>
        <time>2017-03-30T09:06:32Z</time>
      </trkpt>
      <trkpt lat="43.06717" lon="1.37673">
        <ele>398.12</ele>
        <time>2017-03-30T09:06:49Z</time>
      </trkpt>
      <trkpt lat="43.06694" lon="1.37666">
        <ele>396.2</ele>
        <time>2017-03-30T09:07:06Z</time>
      </trkpt>
      <trkpt lat="43.06677" lon="1.3766">
        <ele>394.28</ele>
        <time>2017-03-30T09:07:23Z</time>
      </trkpt>
      <trkpt lat="43.06673" lon="1.3766">
        <ele>394.28</ele>
        <time>2017-03-30T09:07:32Z</time>
      </trkpt>
      <trkpt lat="43.0667" lon="1.37659">
        <ele>393.8</ele>
        <time>2017-03-30T09:07:34Z</time>
      </trkpt>
      <trkpt lat="43.06669" lon="1.37659">
        <ele>393.8</ele>
        <time>2017-03-30T09:07:35Z</time>
      </trkpt>
      <trkpt lat="43.06662" lon="1.37658">
        <ele>393.32</ele>
        <time>2017-03-30T09:07:50Z</time>
      </trkpt>
      <trkpt lat="43.06659" lon="1.37657">
        <ele>392.84</ele>
        <time>2017-03-30T09:08:05Z</time>
      </trkpt>
      <trkpt lat="43.06656" lon="1.37654">
        <ele>392.84</ele>
        <time>2017-03-30T09:08:44Z</time>
      </trkpt>
      <trkpt lat="43.06646" lon="1.3765">
        <ele>391.39</ele>
        <time>2017-03-30T09:09:06Z</time>
      </trkpt>
      <trkpt lat="43.06635" lon="1.3763">
        <ele>390.43</ele>
        <time>2017-03-30T09:09:21Z</time>
      </trkpt>
      <trkpt lat="43.06635" lon="1.37629">
        <ele>390.43</ele>
        <time>2017-03-30T09:09:22Z</time>
      </trkpt>
      <trkpt lat="43.06634" lon="1.37627">
        <ele>390.43</ele>
        <time>2017-03-30T09:09:23Z</time>
      </trkpt>
      <trkpt lat="43.06634" lon="1.37626">
        <ele>390.43</ele>
        <time>2017-03-30T09:09:24Z</time>
      </trkpt>
      <trkpt lat="43.06633" lon="1.37618">
        <ele>390.43</ele>
        <time>2017-03-30T09:09:29Z</time>
      </trkpt>
      <trkpt lat="43.06632" lon="1.37617">
        <ele>390.43</ele>
        <time>2017-03-30T09:09:30Z</time>
      </trkpt>
      <trkpt lat="43.06632" lon="1.37616">
        <ele>390.43</ele>
        <time>2017-03-30T09:09:31Z</time>
      </trkpt>
      <trkpt lat="43.06632" lon="1.37614">
        <ele>390.43</ele>
        <time>2017-03-30T09:09:32Z</time>
      </trkpt>
      <trkpt lat="43.06632" lon="1.37612">
        <ele>390.43</ele>
        <time>2017-03-30T09:09:33Z</time>
      </trkpt>
      <trkpt lat="43.06632" lon="1.3761">
        <ele>390.43</ele>
        <time>2017-03-30T09:09:34Z</time>
      </trkpt>
      <trkpt lat="43.0663" lon="1.37605">
        <ele>390.43</ele>
        <time>2017-03-30T09:09:45Z</time>
      </trkpt>
      <trkpt lat="43.06629" lon="1.376">
        <ele>390.43</ele>
        <time>2017-03-30T09:09:48Z</time>
      </trkpt>
      <trkpt lat="43.06628" lon="1.37597">
        <ele>391.87</ele>
        <time>2017-03-30T09:09:51Z</time>
      </trkpt>
      <trkpt lat="43.06627" lon="1.37595">
        <ele>391.87</ele>
        <time>2017-03-30T09:09:52Z</time>
      </trkpt>
      <trkpt lat="43.06616" lon="1.37572">
        <ele>393.8</ele>
        <time>2017-03-30T09:10:09Z</time>
      </trkpt>
      <trkpt lat="43.06608" lon="1.37543">
        <ele>394.76</ele>
        <time>2017-03-30T09:10:27Z</time>
      </trkpt>
      <trkpt lat="43.06613" lon="1.37535">
        <ele>395.24</ele>
        <time>2017-03-30T09:21:36Z</time>
      </trkpt>
      <trkpt lat="43.06616" lon="1.37534">
        <ele>396.68</ele>
        <time>2017-03-30T09:21:43Z</time>
      </trkpt>
      <trkpt lat="43.0662" lon="1.37529">
        <ele>398.6</ele>
        <time>2017-03-30T09:21:51Z</time>
      </trkpt>
      <trkpt lat="43.06625" lon="1.37524">
        <ele>400.53</ele>
        <time>2017-03-30T09:22:02Z</time>
      </trkpt>
      <trkpt lat="43.06626" lon="1.37523">
        <ele>401.01</ele>
        <time>2017-03-30T09:22:03Z</time>
      </trkpt>
      <trkpt lat="43.06633" lon="1.37514">
        <ele>402.93</ele>
        <time>2017-03-30T09:22:15Z</time>
      </trkpt>
      <trkpt lat="43.06638" lon="1.3751">
        <ele>404.85</ele>
        <time>2017-03-30T09:22:23Z</time>
      </trkpt>
      <trkpt lat="43.06644" lon="1.37505">
        <ele>406.29</ele>
        <time>2017-03-30T09:22:35Z</time>
      </trkpt>
      <trkpt lat="43.06652" lon="1.37498">
        <ele>408.7</ele>
        <time>2017-03-30T09:22:49Z</time>
      </trkpt>
      <trkpt lat="43.06659" lon="1.37491">
        <ele>411.1</ele>
        <time>2017-03-30T09:23:02Z</time>
      </trkpt>
      <trkpt lat="43.06664" lon="1.37488">
        <ele>413.02</ele>
        <time>2017-03-30T09:23:10Z</time>
      </trkpt>
      <trkpt lat="43.06665" lon="1.37486">
        <ele>414.47</ele>
        <time>2017-03-30T09:23:26Z</time>
      </trkpt>
      <trkpt lat="43.06668" lon="1.37483">
        <ele>413.98</ele>
        <time>2017-03-30T09:23:57Z</time>
      </trkpt>
      <trkpt lat="43.06673" lon="1.37477">
        <ele>414.95</ele>
        <time>2017-03-30T09:24:16Z</time>
      </trkpt>
      <trkpt lat="43.06676" lon="1.37477">
        <ele>416.39</ele>
        <time>2017-03-30T09:24:31Z</time>
      </trkpt>
      <trkpt lat="43.06682" lon="1.37473">
        <ele>418.31</ele>
        <time>2017-03-30T09:24:47Z</time>
      </trkpt>
      <trkpt lat="43.06687" lon="1.37466">
        <ele>421.19</ele>
        <time>2017-03-30T09:25:00Z</time>
      </trkpt>
      <trkpt lat="43.06692" lon="1.37464">
        <ele>424.56</ele>
        <time>2017-03-30T09:25:14Z</time>
      </trkpt>
      <trkpt lat="43.06697" lon="1.37457">
        <ele>427.44</ele>
        <time>2017-03-30T09:25:30Z</time>
      </trkpt>
      <trkpt lat="43.06703" lon="1.37454">
        <ele>429.85</ele>
        <time>2017-03-30T09:25:42Z</time>
      </trkpt>
      <trkpt lat="43.06705" lon="1.37449">
        <ele>433.21</ele>
        <time>2017-03-30T09:25:58Z</time>
      </trkpt>
      <trkpt lat="43.06705" lon="1.37445">
        <ele>434.17</ele>
        <time>2017-03-30T09:26:11Z</time>
      </trkpt>
      <trkpt lat="43.06708" lon="1.37443">
        <ele>436.58</ele>
        <time>2017-03-30T09:26:24Z</time>
      </trkpt>
      <trkpt lat="43.06712" lon="1.37437">
        <ele>438.98</ele>
        <time>2017-03-30T09:26:39Z</time>
      </trkpt>
      <trkpt lat="43.0671" lon="1.37439">
        <ele>439.46</ele>
        <time>2017-03-30T09:26:59Z</time>
      </trkpt>
      <trkpt lat="43.06708" lon="1.37434">
        <ele>439.46</ele>
        <time>2017-03-30T09:27:26Z</time>
      </trkpt>
      <trkpt lat="43.06714" lon="1.37432">
        <ele>441.86</ele>
        <time>2017-03-30T09:27:40Z</time>
      </trkpt>
      <trkpt lat="43.06717" lon="1.37424">
        <ele>444.75</ele>
        <time>2017-03-30T09:27:54Z</time>
      </trkpt>
      <trkpt lat="43.06721" lon="1.37423">
        <ele>448.11</ele>
        <time>2017-03-30T09:28:09Z</time>
      </trkpt>
      <trkpt lat="43.06723" lon="1.37418">
        <ele>450.52</ele>
        <time>2017-03-30T09:28:23Z</time>
      </trkpt>
      <trkpt lat="43.06724" lon="1.37407">
        <ele>453.88</ele>
        <time>2017-03-30T09:28:42Z</time>
      </trkpt>
      <trkpt lat="43.06725" lon="1.37399">
        <ele>456.28</ele>
        <time>2017-03-30T09:28:56Z</time>
      </trkpt>
      <trkpt lat="43.06729" lon="1.37395">
        <ele>457.72</ele>
        <time>2017-03-30T09:29:09Z</time>
      </trkpt>
      <trkpt lat="43.06732" lon="1.37394">
        <ele>459.65</ele>
        <time>2017-03-30T09:29:24Z</time>
      </trkpt>
      <trkpt lat="43.06736" lon="1.37396">
        <ele>462.05</ele>
        <time>2017-03-30T09:29:39Z</time>
      </trkpt>
      <trkpt lat="43.06741" lon="1.37393">
        <ele>464.45</ele>
        <time>2017-03-30T09:29:55Z</time>
      </trkpt>
      <trkpt lat="43.06742" lon="1.3739">
        <ele>467.34</ele>
        <time>2017-03-30T09:30:11Z</time>
      </trkpt>
      <trkpt lat="43.06743" lon="1.37383">
        <ele>469.26</ele>
        <time>2017-03-30T09:30:23Z</time>
      </trkpt>
      <trkpt lat="43.06751" lon="1.37385">
        <ele>470.22</ele>
        <time>2017-03-30T09:30:43Z</time>
      </trkpt>
      <trkpt lat="43.06764" lon="1.374">
        <ele>472.63</ele>
        <time>2017-03-30T09:31:01Z</time>
      </trkpt>
      <trkpt lat="43.06773" lon="1.3741">
        <ele>473.11</ele>
        <time>2017-03-30T09:31:17Z</time>
      </trkpt>
      <trkpt lat="43.06775" lon="1.37413">
        <ele>474.07</ele>
        <time>2017-03-30T09:31:27Z</time>
      </trkpt>
      <trkpt lat="43.06781" lon="1.37421">
        <ele>474.07</ele>
        <time>2017-03-30T09:31:40Z</time>
      </trkpt>
      <trkpt lat="43.06789" lon="1.37433">
        <ele>475.51</ele>
        <time>2017-03-30T09:31:56Z</time>
      </trkpt>
      <trkpt lat="43.06792" lon="1.37434">
        <ele>476.47</ele>
        <time>2017-03-30T09:32:10Z</time>
      </trkpt>
      <trkpt lat="43.06801" lon="1.37443">
        <ele>476.95</ele>
        <time>2017-03-30T09:32:25Z</time>
      </trkpt>
      <trkpt lat="43.06811" lon="1.37446">
        <ele>478.87</ele>
        <time>2017-03-30T09:32:39Z</time>
      </trkpt>
      <trkpt lat="43.06816" lon="1.37452">
        <ele>479.35</ele>
        <time>2017-03-30T09:32:46Z</time>
      </trkpt>
      <trkpt lat="43.06827" lon="1.37463">
        <ele>480.8</ele>
        <time>2017-03-30T09:33:00Z</time>
      </trkpt>
      <trkpt lat="43.06834" lon="1.37469">
        <ele>481.28</ele>
        <time>2017-03-30T09:33:07Z</time>
      </trkpt>
      <trkpt lat="43.06844" lon="1.37486">
        <ele>482.72</ele>
        <time>2017-03-30T09:33:22Z</time>
      </trkpt>
      <trkpt lat="43.06851" lon="1.37492">
        <ele>483.68</ele>
        <time>2017-03-30T09:33:33Z</time>
      </trkpt>
      <trkpt lat="43.06863" lon="1.375">
        <ele>485.12</ele>
        <time>2017-03-30T09:33:47Z</time>
      </trkpt>
      <trkpt lat="43.0687" lon="1.375">
        <ele>486.56</ele>
        <time>2017-03-30T09:34:00Z</time>
      </trkpt>
      <trkpt lat="43.06873" lon="1.37503">
        <ele>487.05</ele>
        <time>2017-03-30T09:34:04Z</time>
      </trkpt>
      <trkpt lat="43.06886" lon="1.37505">
        <ele>488.01</ele>
        <time>2017-03-30T09:34:18Z</time>
      </trkpt>
      <trkpt lat="43.06894" lon="1.37511">
        <ele>488.97</ele>
        <time>2017-03-30T09:34:30Z</time>
      </trkpt>
      <trkpt lat="43.06898" lon="1.37514">
        <ele>488.97</ele>
        <time>2017-03-30T09:34:44Z</time>
      </trkpt>
      <trkpt lat="43.06905" lon="1.37513">
        <ele>492.81</ele>
        <time>2017-03-30T09:38:14Z</time>
      </trkpt>
      <trkpt lat="43.06913" lon="1.37514">
        <ele>489.45</ele>
        <time>2017-03-30T09:40:08Z</time>
      </trkpt>
      <trkpt lat="43.06923" lon="1.3751">
        <ele>489.45</ele>
        <time>2017-03-30T09:40:21Z</time>
      </trkpt>
      <trkpt lat="43.06934" lon="1.37501">
        <ele>489.45</ele>
        <time>2017-03-30T09:40:36Z</time>
      </trkpt>
      <trkpt lat="43.0694" lon="1.37495">
        <ele>489.45</ele>
        <time>2017-03-30T09:40:43Z</time>
      </trkpt>
      <trkpt lat="43.06946" lon="1.37488">
        <ele>489.45</ele>
        <time>2017-03-30T09:40:51Z</time>
      </trkpt>
      <trkpt lat="43.06959" lon="1.37481">
        <ele>489.45</ele>
        <time>2017-03-30T09:41:05Z</time>
      </trkpt>
      <trkpt lat="43.06972" lon="1.37468">
        <ele>488.49</ele>
        <time>2017-03-30T09:41:21Z</time>
      </trkpt>
      <trkpt lat="43.06974" lon="1.37453">
        <ele>488.49</ele>
        <time>2017-03-30T09:41:33Z</time>
      </trkpt>
      <trkpt lat="43.06973" lon="1.37445">
        <ele>488.49</ele>
        <time>2017-03-30T09:41:38Z</time>
      </trkpt>
      <trkpt lat="43.06984" lon="1.37431">
        <ele>488.49</ele>
        <time>2017-03-30T09:41:53Z</time>
      </trkpt>
      <trkpt lat="43.06986" lon="1.37423">
        <ele>488.49</ele>
        <time>2017-03-30T09:41:59Z</time>
      </trkpt>
      <trkpt lat="43.06987" lon="1.37418">
        <ele>488.49</ele>
        <time>2017-03-30T09:42:03Z</time>
      </trkpt>
      <trkpt lat="43.0699" lon="1.37409">
        <ele>488.49</ele>
        <time>2017-03-30T09:42:18Z</time>
      </trkpt>
      <trkpt lat="43.06995" lon="1.37397">
        <ele>488.49</ele>
        <time>2017-03-30T09:42:30Z</time>
      </trkpt>
      <trkpt lat="43.06999" lon="1.37383">
        <ele>488.01</ele>
        <time>2017-03-30T09:42:42Z</time>
      </trkpt>
      <trkpt lat="43.07001" lon="1.37371">
        <ele>487.05</ele>
        <time>2017-03-30T09:42:54Z</time>
      </trkpt>
      <trkpt lat="43.0701" lon="1.37351">
        <ele>486.56</ele>
        <time>2017-03-30T09:43:08Z</time>
      </trkpt>
      <trkpt lat="43.07015" lon="1.37331">
        <ele>486.08</ele>
        <time>2017-03-30T09:43:22Z</time>
      </trkpt>
      <trkpt lat="43.07021" lon="1.37315">
        <ele>485.12</ele>
        <time>2017-03-30T09:43:34Z</time>
      </trkpt>
      <trkpt lat="43.07028" lon="1.373">
        <ele>484.64</ele>
        <time>2017-03-30T09:43:48Z</time>
      </trkpt>
      <trkpt lat="43.07034" lon="1.37285">
        <ele>484.16</ele>
        <time>2017-03-30T09:44:01Z</time>
      </trkpt>
      <trkpt lat="43.0704" lon="1.37275">
        <ele>484.16</ele>
        <time>2017-03-30T09:44:13Z</time>
      </trkpt>
      <trkpt lat="43.07042" lon="1.37272">
        <ele>484.16</ele>
        <time>2017-03-30T09:44:17Z</time>
      </trkpt>
      <trkpt lat="43.0705" lon="1.3726">
        <ele>483.68</ele>
        <time>2017-03-30T09:44:31Z</time>
      </trkpt>
      <trkpt lat="43.07055" lon="1.37245">
        <ele>484.16</ele>
        <time>2017-03-30T09:49:46Z</time>
      </trkpt>
      <trkpt lat="43.07058" lon="1.37228">
        <ele>482.24</ele>
        <time>2017-03-30T09:50:00Z</time>
      </trkpt>
      <trkpt lat="43.07062" lon="1.37211">
        <ele>481.76</ele>
        <time>2017-03-30T09:50:16Z</time>
      </trkpt>
      <trkpt lat="43.07063" lon="1.37196">
        <ele>481.28</ele>
        <time>2017-03-30T09:50:28Z</time>
      </trkpt>
      <trkpt lat="43.07067" lon="1.37186">
        <ele>480.8</ele>
        <time>2017-03-30T09:50:38Z</time>
      </trkpt>
      <trkpt lat="43.07074" lon="1.37174">
        <ele>480.8</ele>
        <time>2017-03-30T09:50:49Z</time>
      </trkpt>
      <trkpt lat="43.07085" lon="1.37164">
        <ele>480.8</ele>
        <time>2017-03-30T09:51:02Z</time>
      </trkpt>
      <trkpt lat="43.07088" lon="1.37155">
        <ele>480.8</ele>
        <time>2017-03-30T09:51:10Z</time>
      </trkpt>
      <trkpt lat="43.0709" lon="1.3715">
        <ele>480.8</ele>
        <time>2017-03-30T09:51:14Z</time>
      </trkpt>
      <trkpt lat="43.07091" lon="1.37131">
        <ele>480.32</ele>
        <time>2017-03-30T09:51:30Z</time>
      </trkpt>
      <trkpt lat="43.07098" lon="1.37119">
        <ele>479.84</ele>
        <time>2017-03-30T09:51:43Z</time>
      </trkpt>
      <trkpt lat="43.07103" lon="1.37106">
        <ele>479.84</ele>
        <time>2017-03-30T09:51:56Z</time>
      </trkpt>
      <trkpt lat="43.07109" lon="1.37087">
        <ele>479.35</ele>
        <time>2017-03-30T09:52:11Z</time>
      </trkpt>
      <trkpt lat="43.07118" lon="1.37072">
        <ele>478.87</ele>
        <time>2017-03-30T09:52:24Z</time>
      </trkpt>
      <trkpt lat="43.07124" lon="1.37052">
        <ele>478.87</ele>
        <time>2017-03-30T09:52:39Z</time>
      </trkpt>
      <trkpt lat="43.07124" lon="1.37051">
        <ele>478.87</ele>
        <time>2017-03-30T09:52:40Z</time>
      </trkpt>
      <trkpt lat="43.07131" lon="1.37033">
        <ele>478.87</ele>
        <time>2017-03-30T09:52:55Z</time>
      </trkpt>
      <trkpt lat="43.07136" lon="1.37019">
        <ele>478.87</ele>
        <time>2017-03-30T09:53:04Z</time>
      </trkpt>
      <trkpt lat="43.07137" lon="1.37016">
        <ele>478.87</ele>
        <time>2017-03-30T09:53:06Z</time>
      </trkpt>
      <trkpt lat="43.07142" lon="1.37005">
        <ele>478.87</ele>
        <time>2017-03-30T09:53:20Z</time>
      </trkpt>
      <trkpt lat="43.07143" lon="1.36991">
        <ele>477.91</ele>
        <time>2017-03-30T09:53:33Z</time>
      </trkpt>
      <trkpt lat="43.07147" lon="1.36975">
        <ele>477.43</ele>
        <time>2017-03-30T09:53:47Z</time>
      </trkpt>
      <trkpt lat="43.07146" lon="1.36954">
        <ele>476.47</ele>
        <time>2017-03-30T09:54:02Z</time>
      </trkpt>
      <trkpt lat="43.0715" lon="1.36938">
        <ele>475.99</ele>
        <time>2017-03-30T09:54:14Z</time>
      </trkpt>
      <trkpt lat="43.07155" lon="1.36923">
        <ele>475.51</ele>
        <time>2017-03-30T09:54:26Z</time>
      </trkpt>
      <trkpt lat="43.07154" lon="1.36915">
        <ele>474.55</ele>
        <time>2017-03-30T09:54:32Z</time>
      </trkpt>
      <trkpt lat="43.07159" lon="1.369">
        <ele>474.55</ele>
        <time>2017-03-30T09:54:46Z</time>
      </trkpt>
      <trkpt lat="43.0716" lon="1.36891">
        <ele>472.63</ele>
        <time>2017-03-30T09:54:57Z</time>
      </trkpt>
      <trkpt lat="43.07163" lon="1.36882">
        <ele>470.7</ele>
        <time>2017-03-30T09:55:09Z</time>
      </trkpt>
      <trkpt lat="43.07165" lon="1.36871">
        <ele>470.22</ele>
        <time>2017-03-30T09:55:18Z</time>
      </trkpt>
      <trkpt lat="43.07169" lon="1.36854">
        <ele>468.3</ele>
        <time>2017-03-30T09:55:31Z</time>
      </trkpt>
      <trkpt lat="43.07173" lon="1.36837">
        <ele>468.3</ele>
        <time>2017-03-30T09:55:44Z</time>
      </trkpt>
      <trkpt lat="43.07173" lon="1.36836">
        <ele>468.3</ele>
        <time>2017-03-30T09:55:45Z</time>
      </trkpt>
      <trkpt lat="43.07173" lon="1.36819">
        <ele>468.3</ele>
        <time>2017-03-30T09:56:00Z</time>
      </trkpt>
      <trkpt lat="43.07174" lon="1.36809">
        <ele>468.3</ele>
        <time>2017-03-30T09:56:07Z</time>
      </trkpt>
      <trkpt lat="43.07178" lon="1.36789">
        <ele>467.82</ele>
        <time>2017-03-30T09:56:21Z</time>
      </trkpt>
      <trkpt lat="43.07185" lon="1.36768">
        <ele>465.42</ele>
        <time>2017-03-30T09:56:37Z</time>
      </trkpt>
      <trkpt lat="43.07189" lon="1.36759">
        <ele>465.42</ele>
        <time>2017-03-30T09:56:47Z</time>
      </trkpt>
      <trkpt lat="43.07196" lon="1.36745">
        <ele>464.45</ele>
        <time>2017-03-30T09:56:58Z</time>
      </trkpt>
      <trkpt lat="43.072" lon="1.36722">
        <ele>463.49</ele>
        <time>2017-03-30T09:57:14Z</time>
      </trkpt>
      <trkpt lat="43.07203" lon="1.36703">
        <ele>463.01</ele>
        <time>2017-03-30T09:57:27Z</time>
      </trkpt>
      <trkpt lat="43.07205" lon="1.36697">
        <ele>463.01</ele>
        <time>2017-03-30T09:57:31Z</time>
      </trkpt>
      <trkpt lat="43.07206" lon="1.36692">
        <ele>463.01</ele>
        <time>2017-03-30T09:57:34Z</time>
      </trkpt>
      <trkpt lat="43.07209" lon="1.36677">
        <ele>464.45</ele>
        <time>2017-03-30T09:57:47Z</time>
      </trkpt>
      <trkpt lat="43.0721" lon="1.36676">
        <ele>464.45</ele>
        <time>2017-03-30T09:57:48Z</time>
      </trkpt>
      <trkpt lat="43.07212" lon="1.36673">
        <ele>464.93</ele>
        <time>2017-03-30T09:58:00Z</time>
      </trkpt>
      <trkpt lat="43.07214" lon="1.36661">
        <ele>463.49</ele>
        <time>2017-03-30T09:59:12Z</time>
      </trkpt>
      <trkpt lat="43.07215" lon="1.36649">
        <ele>461.57</ele>
        <time>2017-03-30T09:59:25Z</time>
      </trkpt>
      <trkpt lat="43.07216" lon="1.36634">
        <ele>458.69</ele>
        <time>2017-03-30T09:59:39Z</time>
      </trkpt>
      <trkpt lat="43.0722" lon="1.36621">
        <ele>457.24</ele>
        <time>2017-03-30T09:59:50Z</time>
      </trkpt>
      <trkpt lat="43.07221" lon="1.36612">
        <ele>455.8</ele>
        <time>2017-03-30T09:59:57Z</time>
      </trkpt>
      <trkpt lat="43.07223" lon="1.36601">
        <ele>455.32</ele>
        <time>2017-03-30T10:00:04Z</time>
      </trkpt>
      <trkpt lat="43.07221" lon="1.36579">
        <ele>454.36</ele>
        <time>2017-03-30T10:00:16Z</time>
      </trkpt>
      <trkpt lat="43.07226" lon="1.36547">
        <ele>451.96</ele>
        <time>2017-03-30T10:00:34Z</time>
      </trkpt>
      <trkpt lat="43.07226" lon="1.36544">
        <ele>451</ele>
        <time>2017-03-30T10:00:36Z</time>
      </trkpt>
      <trkpt lat="43.07227" lon="1.3652">
        <ele>449.07</ele>
        <time>2017-03-30T10:00:50Z</time>
      </trkpt>
      <trkpt lat="43.07229" lon="1.36513">
        <ele>448.11</ele>
        <time>2017-03-30T10:00:56Z</time>
      </trkpt>
      <trkpt lat="43.07228" lon="1.3649">
        <ele>444.27</ele>
        <time>2017-03-30T10:01:11Z</time>
      </trkpt>
      <trkpt lat="43.07228" lon="1.36487">
        <ele>444.27</ele>
        <time>2017-03-30T10:01:13Z</time>
      </trkpt>
      <trkpt lat="43.07231" lon="1.36465">
        <ele>441.86</ele>
        <time>2017-03-30T10:01:28Z</time>
      </trkpt>
      <trkpt lat="43.07231" lon="1.36455">
        <ele>440.42</ele>
        <time>2017-03-30T10:01:44Z</time>
      </trkpt>
      <trkpt lat="43.07231" lon="1.36451">
        <ele>439.46</ele>
        <time>2017-03-30T10:01:48Z</time>
      </trkpt>
      <trkpt lat="43.07225" lon="1.36441">
        <ele>436.1</ele>
        <time>2017-03-30T10:02:00Z</time>
      </trkpt>
      <trkpt lat="43.07223" lon="1.36437">
        <ele>434.65</ele>
        <time>2017-03-30T10:02:04Z</time>
      </trkpt>
      <trkpt lat="43.07223" lon="1.36433">
        <ele>434.17</ele>
        <time>2017-03-30T10:02:08Z</time>
      </trkpt>
      <trkpt lat="43.07225" lon="1.36411">
        <ele>430.33</ele>
        <time>2017-03-30T10:02:23Z</time>
      </trkpt>
      <trkpt lat="43.07225" lon="1.3641">
        <ele>430.33</ele>
        <time>2017-03-30T10:02:24Z</time>
      </trkpt>
      <trkpt lat="43.07224" lon="1.36406">
        <ele>429.37</ele>
        <time>2017-03-30T10:02:27Z</time>
      </trkpt>
      <trkpt lat="43.07223" lon="1.36387">
        <ele>426</ele>
        <time>2017-03-30T10:02:40Z</time>
      </trkpt>
      <trkpt lat="43.07222" lon="1.36372">
        <ele>424.56</ele>
        <time>2017-03-30T10:02:50Z</time>
      </trkpt>
      <trkpt lat="43.07219" lon="1.36358">
        <ele>422.16</ele>
        <time>2017-03-30T10:03:00Z</time>
      </trkpt>
      <trkpt lat="43.07221" lon="1.36347">
        <ele>421.19</ele>
        <time>2017-03-30T10:03:07Z</time>
      </trkpt>
      <trkpt lat="43.07223" lon="1.36331">
        <ele>419.27</ele>
        <time>2017-03-30T10:03:22Z</time>
      </trkpt>
      <trkpt lat="43.07222" lon="1.36323">
        <ele>417.83</ele>
        <time>2017-03-30T10:03:39Z</time>
      </trkpt>
      <trkpt lat="43.07219" lon="1.36318">
        <ele>417.35</ele>
        <time>2017-03-30T10:03:44Z</time>
      </trkpt>
      <trkpt lat="43.07217" lon="1.36314">
        <ele>416.39</ele>
        <time>2017-03-30T10:03:46Z</time>
      </trkpt>
      <trkpt lat="43.07213" lon="1.363">
        <ele>414.95</ele>
        <time>2017-03-30T10:03:56Z</time>
      </trkpt>
      <trkpt lat="43.07212" lon="1.36294">
        <ele>413.5</ele>
        <time>2017-03-30T10:04:01Z</time>
      </trkpt>
      <trkpt lat="43.07212" lon="1.36291">
        <ele>413.02</ele>
        <time>2017-03-30T10:04:02Z</time>
      </trkpt>
      <trkpt lat="43.07211" lon="1.3629">
        <ele>413.02</ele>
        <time>2017-03-30T10:04:03Z</time>
      </trkpt>
      <trkpt lat="43.0721" lon="1.36284">
        <ele>411.1</ele>
        <time>2017-03-30T10:04:09Z</time>
      </trkpt>
      <trkpt lat="43.07211" lon="1.36281">
        <ele>410.62</ele>
        <time>2017-03-30T10:04:11Z</time>
      </trkpt>
      <trkpt lat="43.07211" lon="1.3628">
        <ele>410.14</ele>
        <time>2017-03-30T10:04:12Z</time>
      </trkpt>
      <trkpt lat="43.07211" lon="1.36278">
        <ele>409.66</ele>
        <time>2017-03-30T10:04:13Z</time>
      </trkpt>
      <trkpt lat="43.07215" lon="1.36263">
        <ele>407.74</ele>
        <time>2017-03-30T10:04:22Z</time>
      </trkpt>
      <trkpt lat="43.07217" lon="1.36246">
        <ele>405.81</ele>
        <time>2017-03-30T10:04:33Z</time>
      </trkpt>
      <trkpt lat="43.07217" lon="1.36241">
        <ele>404.85</ele>
        <time>2017-03-30T10:04:37Z</time>
      </trkpt>
      <trkpt lat="43.07223" lon="1.36232">
        <ele>402.45</ele>
        <time>2017-03-30T10:04:48Z</time>
      </trkpt>
      <trkpt lat="43.07225" lon="1.36225">
        <ele>400.53</ele>
        <time>2017-03-30T10:04:56Z</time>
      </trkpt>
      <trkpt lat="43.07226" lon="1.36217">
        <ele>398.6</ele>
        <time>2017-03-30T10:05:03Z</time>
      </trkpt>
      <trkpt lat="43.07226" lon="1.36211">
        <ele>397.16</ele>
        <time>2017-03-30T10:05:09Z</time>
      </trkpt>
      <trkpt lat="43.07226" lon="1.36201">
        <ele>394.76</ele>
        <time>2017-03-30T10:05:19Z</time>
      </trkpt>
      <trkpt lat="43.07227" lon="1.3619">
        <ele>392.36</ele>
        <time>2017-03-30T10:05:29Z</time>
      </trkpt>
      <trkpt lat="43.07227" lon="1.36188">
        <ele>391.87</ele>
        <time>2017-03-30T10:05:30Z</time>
      </trkpt>
      <trkpt lat="43.07227" lon="1.36186">
        <ele>391.87</ele>
        <time>2017-03-30T10:05:31Z</time>
      </trkpt>
      <trkpt lat="43.07227" lon="1.36184">
        <ele>391.39</ele>
        <time>2017-03-30T10:05:32Z</time>
      </trkpt>
      <trkpt lat="43.07227" lon="1.36171">
        <ele>388.51</ele>
        <time>2017-03-30T10:05:43Z</time>
      </trkpt>
      <trkpt lat="43.07228" lon="1.36169">
        <ele>388.51</ele>
        <time>2017-03-30T10:05:44Z</time>
      </trkpt>
      <trkpt lat="43.07228" lon="1.36167">
        <ele>387.55</ele>
        <time>2017-03-30T10:05:45Z</time>
      </trkpt>
      <trkpt lat="43.07227" lon="1.36157">
        <ele>385.15</ele>
        <time>2017-03-30T10:05:56Z</time>
      </trkpt>
      <trkpt lat="43.0723" lon="1.36139">
        <ele>382.26</ele>
        <time>2017-03-30T10:06:08Z</time>
      </trkpt>
      <trkpt lat="43.0723" lon="1.36125">
        <ele>379.86</ele>
        <time>2017-03-30T10:06:21Z</time>
      </trkpt>
      <trkpt lat="43.07233" lon="1.36114">
        <ele>376.97</ele>
        <time>2017-03-30T10:06:32Z</time>
      </trkpt>
      <trkpt lat="43.07239" lon="1.36101">
        <ele>374.09</ele>
        <time>2017-03-30T10:06:44Z</time>
      </trkpt>
      <trkpt lat="43.07242" lon="1.36082">
        <ele>371.21</ele>
        <time>2017-03-30T10:06:57Z</time>
      </trkpt>
      <trkpt lat="43.07242" lon="1.36081">
        <ele>370.73</ele>
        <time>2017-03-30T10:06:58Z</time>
      </trkpt>
      <trkpt lat="43.07247" lon="1.36062">
        <ele>368.32</ele>
        <time>2017-03-30T10:07:12Z</time>
      </trkpt>
      <trkpt lat="43.0725" lon="1.36042">
        <ele>365.44</ele>
        <time>2017-03-30T10:07:26Z</time>
      </trkpt>
      <trkpt lat="43.07251" lon="1.36028">
        <ele>364.48</ele>
        <time>2017-03-30T10:07:35Z</time>
      </trkpt>
      <trkpt lat="43.07249" lon="1.36012">
        <ele>361.11</ele>
        <time>2017-03-30T10:07:47Z</time>
      </trkpt>
      <trkpt lat="43.0725" lon="1.35999">
        <ele>358.71</ele>
        <time>2017-03-30T10:07:59Z</time>
      </trkpt>
      <trkpt lat="43.07251" lon="1.35985">
        <ele>356.31</ele>
        <time>2017-03-30T10:08:12Z</time>
      </trkpt>
      <trkpt lat="43.07252" lon="1.35967">
        <ele>353.9</ele>
        <time>2017-03-30T10:08:25Z</time>
      </trkpt>
      <trkpt lat="43.07254" lon="1.35963">
        <ele>353.42</ele>
        <time>2017-03-30T10:08:40Z</time>
      </trkpt>
      <trkpt lat="43.07254" lon="1.35951">
        <ele>351.98</ele>
        <time>2017-03-30T10:08:53Z</time>
      </trkpt>
      <trkpt lat="43.07255" lon="1.35929">
        <ele>350.54</ele>
        <time>2017-03-30T10:09:06Z</time>
      </trkpt>
      <trkpt lat="43.07255" lon="1.35904">
        <ele>348.13</ele>
        <time>2017-03-30T10:09:20Z</time>
      </trkpt>
      <trkpt lat="43.07257" lon="1.3589">
        <ele>345.25</ele>
        <time>2017-03-30T10:09:29Z</time>
      </trkpt>
      <trkpt lat="43.07258" lon="1.35866">
        <ele>341.41</ele>
        <time>2017-03-30T10:09:45Z</time>
      </trkpt>
      <trkpt lat="43.07259" lon="1.3585">
        <ele>338.04</ele>
        <time>2017-03-30T10:09:58Z</time>
      </trkpt>
      <trkpt lat="43.07259" lon="1.3584">
        <ele>336.12</ele>
        <time>2017-03-30T10:10:11Z</time>
      </trkpt>
      <trkpt lat="43.07258" lon="1.35832">
        <ele>334.68</ele>
        <time>2017-03-30T10:10:29Z</time>
      </trkpt>
      <trkpt lat="43.07261" lon="1.35835">
        <ele>334.68</ele>
        <time>2017-03-30T10:10:45Z</time>
      </trkpt>
      <trkpt lat="43.07262" lon="1.35833">
        <ele>334.68</ele>
        <time>2017-03-30T10:10:49Z</time>
      </trkpt>
      <trkpt lat="43.07264" lon="1.35831">
        <ele>334.68</ele>
        <time>2017-03-30T10:10:50Z</time>
      </trkpt>
      <trkpt lat="43.07264" lon="1.3583">
        <ele>334.68</ele>
        <time>2017-03-30T10:10:51Z</time>
      </trkpt>
      <trkpt lat="43.07271" lon="1.35824">
        <ele>333.71</ele>
        <time>2017-03-30T10:10:58Z</time>
      </trkpt>
      <trkpt lat="43.07272" lon="1.35823">
        <ele>333.71</ele>
        <time>2017-03-30T10:10:59Z</time>
      </trkpt>
      <trkpt lat="43.07284" lon="1.35805">
        <ele>331.31</ele>
        <time>2017-03-30T10:11:15Z</time>
      </trkpt>
      <trkpt lat="43.07285" lon="1.35798">
        <ele>329.87</ele>
        <time>2017-03-30T10:11:19Z</time>
      </trkpt>
      <trkpt lat="43.07285" lon="1.35797">
        <ele>329.87</ele>
        <time>2017-03-30T10:11:20Z</time>
      </trkpt>
      <trkpt lat="43.07284" lon="1.35795">
        <ele>329.39</ele>
        <time>2017-03-30T10:11:21Z</time>
      </trkpt>
      <trkpt lat="43.07283" lon="1.35794">
        <ele>329.39</ele>
        <time>2017-03-30T10:11:22Z</time>
      </trkpt>
      <trkpt lat="43.07283" lon="1.35792">
        <ele>328.91</ele>
        <time>2017-03-30T10:11:23Z</time>
      </trkpt>
      <trkpt lat="43.07282" lon="1.35791">
        <ele>328.91</ele>
        <time>2017-03-30T10:11:24Z</time>
      </trkpt>
      <trkpt lat="43.07281" lon="1.3579">
        <ele>328.91</ele>
        <time>2017-03-30T10:11:25Z</time>
      </trkpt>
      <trkpt lat="43.0728" lon="1.35789">
        <ele>328.43</ele>
        <time>2017-03-30T10:11:26Z</time>
      </trkpt>
      <trkpt lat="43.07279" lon="1.35787">
        <ele>328.43</ele>
        <time>2017-03-30T10:11:27Z</time>
      </trkpt>
      <trkpt lat="43.07259" lon="1.35772">
        <ele>325.06</ele>
        <time>2017-03-30T10:11:44Z</time>
      </trkpt>
      <trkpt lat="43.0724" lon="1.3576">
        <ele>323.62</ele>
        <time>2017-03-30T10:12:01Z</time>
      </trkpt>
      <trkpt lat="43.07226" lon="1.35752">
        <ele>321.7</ele>
        <time>2017-03-30T10:12:17Z</time>
      </trkpt>
      <trkpt lat="43.07224" lon="1.35752">
        <ele>321.22</ele>
        <time>2017-03-30T10:12:35Z</time>
      </trkpt>
      <trkpt lat="43.07212" lon="1.35742">
        <ele>319.78</ele>
        <time>2017-03-30T10:13:03Z</time>
      </trkpt>
      <trkpt lat="43.07199" lon="1.35731">
        <ele>317.85</ele>
        <time>2017-03-30T10:13:17Z</time>
      </trkpt>
      <trkpt lat="43.0719" lon="1.3572">
        <ele>316.41</ele>
        <time>2017-03-30T10:13:32Z</time>
      </trkpt>
      <trkpt lat="43.07188" lon="1.35717">
        <ele>315.93</ele>
        <time>2017-03-30T10:13:37Z</time>
      </trkpt>
      <trkpt lat="43.07181" lon="1.35708">
        <ele>314.49</ele>
        <time>2017-03-30T10:13:46Z</time>
      </trkpt>
      <trkpt lat="43.07179" lon="1.35705">
        <ele>314.01</ele>
        <time>2017-03-30T10:13:48Z</time>
      </trkpt>
      <trkpt lat="43.07179" lon="1.35703">
        <ele>314.01</ele>
        <time>2017-03-30T10:13:49Z</time>
      </trkpt>
      <trkpt lat="43.07176" lon="1.35691">
        <ele>313.05</ele>
        <time>2017-03-30T10:14:03Z</time>
      </trkpt>
      <trkpt lat="43.07171" lon="1.35683">
        <ele>312.09</ele>
        <time>2017-03-30T10:14:16Z</time>
      </trkpt>
      <trkpt lat="43.07168" lon="1.35668">
        <ele>311.6</ele>
        <time>2017-03-30T10:14:53Z</time>
      </trkpt>
      <trkpt lat="43.0718" lon="1.35679">
        <ele>311.12</ele>
        <time>2017-03-30T10:15:00Z</time>
      </trkpt>
      <trkpt lat="43.07185" lon="1.35683">
        <ele>311.12</ele>
        <time>2017-03-30T10:15:04Z</time>
      </trkpt>
      <trkpt lat="43.07186" lon="1.35682">
        <ele>311.12</ele>
        <time>2017-03-30T10:15:05Z</time>
      </trkpt>
      <trkpt lat="43.07188" lon="1.35682">
        <ele>311.12</ele>
        <time>2017-03-30T10:15:06Z</time>
      </trkpt>
      <trkpt lat="43.07189" lon="1.35681">
        <ele>311.12</ele>
        <time>2017-03-30T10:15:07Z</time>
      </trkpt>
      <trkpt lat="43.0719" lon="1.35681">
        <ele>311.12</ele>
        <time>2017-03-30T10:15:08Z</time>
      </trkpt>
      <trkpt lat="43.07211" lon="1.35675">
        <ele>309.2</ele>
        <time>2017-03-30T10:15:25Z</time>
      </trkpt>
      <trkpt lat="43.07228" lon="1.35677">
        <ele>308.24</ele>
        <time>2017-03-30T10:15:37Z</time>
      </trkpt>
      <trkpt lat="43.07247" lon="1.35686">
        <ele>305.84</ele>
        <time>2017-03-30T10:15:52Z</time>
      </trkpt>
      <trkpt lat="43.07268" lon="1.35682">
        <ele>302.47</ele>
        <time>2017-03-30T10:16:07Z</time>
      </trkpt>
      <trkpt lat="43.07279" lon="1.35682">
        <ele>300.55</ele>
        <time>2017-03-30T10:16:14Z</time>
      </trkpt>
      <trkpt lat="43.0728" lon="1.35681">
        <ele>300.55</ele>
        <time>2017-03-30T10:16:15Z</time>
      </trkpt>
      <trkpt lat="43.07282" lon="1.35681">
        <ele>300.07</ele>
        <time>2017-03-30T10:16:16Z</time>
      </trkpt>
      <trkpt lat="43.07288" lon="1.35679">
        <ele>298.63</ele>
        <time>2017-03-30T10:16:25Z</time>
      </trkpt>
      <trkpt lat="43.07297" lon="1.35684">
        <ele>298.63</ele>
        <time>2017-03-30T10:16:32Z</time>
      </trkpt>
      <trkpt lat="43.07298" lon="1.35683">
        <ele>298.63</ele>
        <time>2017-03-30T10:16:33Z</time>
      </trkpt>
      <trkpt lat="43.073" lon="1.35683">
        <ele>298.63</ele>
        <time>2017-03-30T10:16:34Z</time>
      </trkpt>
      <trkpt lat="43.0732" lon="1.35697">
        <ele>298.15</ele>
        <time>2017-03-30T10:16:50Z</time>
      </trkpt>
      <trkpt lat="43.07325" lon="1.357">
        <ele>298.15</ele>
        <time>2017-03-30T10:17:05Z</time>
      </trkpt>
      <trkpt lat="43.0733" lon="1.3571">
        <ele>297.18</ele>
        <time>2017-03-30T10:17:16Z</time>
      </trkpt>
      <trkpt lat="43.07343" lon="1.35727">
        <ele>296.7</ele>
        <time>2017-03-30T10:17:32Z</time>
      </trkpt>
      <trkpt lat="43.07353" lon="1.35738">
        <ele>296.22</ele>
        <time>2017-03-30T10:17:45Z</time>
      </trkpt>
      <trkpt lat="43.07354" lon="1.35739">
        <ele>296.22</ele>
        <time>2017-03-30T10:17:46Z</time>
      </trkpt>
      <trkpt lat="43.07354" lon="1.3574">
        <ele>296.22</ele>
        <time>2017-03-30T10:17:47Z</time>
      </trkpt>
      <trkpt lat="43.07355" lon="1.35741">
        <ele>296.22</ele>
        <time>2017-03-30T10:17:48Z</time>
      </trkpt>
      <trkpt lat="43.07356" lon="1.35742">
        <ele>296.22</ele>
        <time>2017-03-30T10:17:49Z</time>
      </trkpt>
      <trkpt lat="43.07357" lon="1.35742">
        <ele>296.22</ele>
        <time>2017-03-30T10:17:50Z</time>
      </trkpt>
      <trkpt lat="43.07364" lon="1.35747">
        <ele>296.22</ele>
        <time>2017-03-30T10:17:58Z</time>
      </trkpt>
      <trkpt lat="43.07365" lon="1.35748">
        <ele>296.22</ele>
        <time>2017-03-30T10:17:59Z</time>
      </trkpt>
      <trkpt lat="43.07366" lon="1.35748">
        <ele>296.22</ele>
        <time>2017-03-30T10:18:00Z</time>
      </trkpt>
      <trkpt lat="43.07379" lon="1.35762">
        <ele>294.78</ele>
        <time>2017-03-30T10:18:29Z</time>
      </trkpt>
      <trkpt lat="43.07389" lon="1.35771">
        <ele>294.78</ele>
        <time>2017-03-30T10:18:42Z</time>
      </trkpt>
      <trkpt lat="43.07402" lon="1.35779">
        <ele>294.3</ele>
        <time>2017-03-30T10:18:56Z</time>
      </trkpt>
      <trkpt lat="43.07416" lon="1.35791">
        <ele>293.34</ele>
        <time>2017-03-30T10:19:10Z</time>
      </trkpt>
      <trkpt lat="43.07432" lon="1.35803">
        <ele>293.34</ele>
        <time>2017-03-30T10:19:25Z</time>
      </trkpt>
      <trkpt lat="43.07449" lon="1.35817">
        <ele>293.34</ele>
        <time>2017-03-30T10:19:42Z</time>
      </trkpt>
      <trkpt lat="43.07465" lon="1.35828">
        <ele>292.86</ele>
        <time>2017-03-30T10:19:58Z</time>
      </trkpt>
      <trkpt lat="43.0748" lon="1.35838">
        <ele>293.82</ele>
        <time>2017-03-30T10:20:13Z</time>
      </trkpt>
      <trkpt lat="43.07497" lon="1.35852">
        <ele>293.82</ele>
        <time>2017-03-30T10:20:29Z</time>
      </trkpt>
      <trkpt lat="43.07515" lon="1.35864">
        <ele>294.3</ele>
        <time>2017-03-30T10:20:43Z</time>
      </trkpt>
      <trkpt lat="43.07521" lon="1.35871">
        <ele>294.3</ele>
        <time>2017-03-30T10:20:50Z</time>
      </trkpt>
      <trkpt lat="43.07534" lon="1.3589">
        <ele>293.82</ele>
        <time>2017-03-30T10:21:05Z</time>
      </trkpt>
      <trkpt lat="43.07545" lon="1.35904">
        <ele>293.82</ele>
        <time>2017-03-30T10:21:20Z</time>
      </trkpt>
      <trkpt lat="43.07554" lon="1.35916">
        <ele>293.82</ele>
        <time>2017-03-30T10:21:33Z</time>
      </trkpt>
      <trkpt lat="43.07562" lon="1.35926">
        <ele>293.82</ele>
        <time>2017-03-30T10:21:42Z</time>
      </trkpt>
      <trkpt lat="43.07564" lon="1.35928">
        <ele>293.82</ele>
        <time>2017-03-30T10:21:44Z</time>
      </trkpt>
      <trkpt lat="43.07565" lon="1.3593">
        <ele>293.82</ele>
        <time>2017-03-30T10:21:45Z</time>
      </trkpt>
      <trkpt lat="43.07566" lon="1.35931">
        <ele>293.82</ele>
        <time>2017-03-30T10:21:46Z</time>
      </trkpt>
      <trkpt lat="43.07581" lon="1.35944">
        <ele>293.34</ele>
        <time>2017-03-30T10:22:00Z</time>
      </trkpt>
      <trkpt lat="43.07587" lon="1.35947">
        <ele>292.38</ele>
        <time>2017-03-30T10:22:05Z</time>
      </trkpt>
      <trkpt lat="43.07588" lon="1.35947">
        <ele>292.38</ele>
        <time>2017-03-30T10:22:06Z</time>
      </trkpt>
      <trkpt lat="43.07589" lon="1.35947">
        <ele>292.38</ele>
        <time>2017-03-30T10:22:07Z</time>
      </trkpt>
      <trkpt lat="43.07598" lon="1.35949">
        <ele>291.9</ele>
        <time>2017-03-30T10:22:14Z</time>
      </trkpt>
      <trkpt lat="43.07599" lon="1.35948">
        <ele>291.9</ele>
        <time>2017-03-30T10:22:15Z</time>
      </trkpt>
      <trkpt lat="43.07601" lon="1.35948">
        <ele>291.42</ele>
        <time>2017-03-30T10:22:16Z</time>
      </trkpt>
      <trkpt lat="43.07602" lon="1.35948">
        <ele>291.42</ele>
        <time>2017-03-30T10:22:17Z</time>
      </trkpt>
      <trkpt lat="43.07603" lon="1.35949">
        <ele>291.42</ele>
        <time>2017-03-30T10:22:18Z</time>
      </trkpt>
      <trkpt lat="43.07622" lon="1.35952">
        <ele>290.46</ele>
        <time>2017-03-30T10:22:35Z</time>
      </trkpt>
      <trkpt lat="43.07623" lon="1.35953">
        <ele>290.46</ele>
        <time>2017-03-30T10:22:36Z</time>
      </trkpt>
      <trkpt lat="43.07624" lon="1.35953">
        <ele>290.46</ele>
        <time>2017-03-30T10:22:37Z</time>
      </trkpt>
      <trkpt lat="43.07626" lon="1.35954">
        <ele>289.97</ele>
        <time>2017-03-30T10:22:39Z</time>
      </trkpt>
      <trkpt lat="43.07628" lon="1.35954">
        <ele>289.97</ele>
        <time>2017-03-30T10:22:40Z</time>
      </trkpt>
      <trkpt lat="43.07633" lon="1.35957">
        <ele>289.49</ele>
        <time>2017-03-30T10:22:45Z</time>
      </trkpt>
      <trkpt lat="43.07635" lon="1.35958">
        <ele>289.49</ele>
        <time>2017-03-30T10:22:46Z</time>
      </trkpt>
      <trkpt lat="43.07636" lon="1.35958">
        <ele>289.49</ele>
        <time>2017-03-30T10:22:47Z</time>
      </trkpt>
      <trkpt lat="43.07646" lon="1.35961">
        <ele>288.53</ele>
        <time>2017-03-30T10:22:58Z</time>
      </trkpt>
      <trkpt lat="43.07648" lon="1.3596">
        <ele>288.53</ele>
        <time>2017-03-30T10:22:59Z</time>
      </trkpt>
      <trkpt lat="43.07649" lon="1.35959">
        <ele>288.05</ele>
        <time>2017-03-30T10:23:00Z</time>
      </trkpt>
      <trkpt lat="43.07664" lon="1.35966">
        <ele>287.09</ele>
        <time>2017-03-30T10:23:14Z</time>
      </trkpt>
      <trkpt lat="43.07672" lon="1.35972">
        <ele>286.61</ele>
        <time>2017-03-30T10:23:30Z</time>
      </trkpt>
      <trkpt lat="43.07679" lon="1.35975">
        <ele>286.13</ele>
        <time>2017-03-30T10:23:36Z</time>
      </trkpt>
      <trkpt lat="43.07683" lon="1.35977">
        <ele>286.13</ele>
        <time>2017-03-30T10:23:40Z</time>
      </trkpt>
      <trkpt lat="43.07698" lon="1.3598">
        <ele>285.17</ele>
        <time>2017-03-30T10:23:54Z</time>
      </trkpt>
      <trkpt lat="43.07702" lon="1.35982">
        <ele>284.69</ele>
        <time>2017-03-30T10:23:57Z</time>
      </trkpt>
      <trkpt lat="43.07703" lon="1.35982">
        <ele>284.69</ele>
        <time>2017-03-30T10:23:58Z</time>
      </trkpt>
      <trkpt lat="43.07704" lon="1.35983">
        <ele>284.69</ele>
        <time>2017-03-30T10:23:59Z</time>
      </trkpt>
      <trkpt lat="43.07705" lon="1.35983">
        <ele>284.69</ele>
        <time>2017-03-30T10:24:00Z</time>
      </trkpt>
      <trkpt lat="43.07715" lon="1.35983">
        <ele>284.21</ele>
        <time>2017-03-30T10:24:08Z</time>
      </trkpt>
      <trkpt lat="43.07716" lon="1.35983">
        <ele>283.73</ele>
        <time>2017-03-30T10:24:09Z</time>
      </trkpt>
      <trkpt lat="43.07719" lon="1.35985">
        <ele>283.73</ele>
        <time>2017-03-30T10:24:12Z</time>
      </trkpt>
      <trkpt lat="43.07721" lon="1.35985">
        <ele>283.73</ele>
        <time>2017-03-30T10:24:13Z</time>
      </trkpt>
      <trkpt lat="43.07738" lon="1.35991">
        <ele>282.77</ele>
        <time>2017-03-30T10:24:27Z</time>
      </trkpt>
      <trkpt lat="43.07756" lon="1.35992">
        <ele>282.28</ele>
        <time>2017-03-30T10:24:42Z</time>
      </trkpt>
      <trkpt lat="43.07762" lon="1.35991">
        <ele>281.8</ele>
        <time>2017-03-30T10:25:03Z</time>
      </trkpt>
      <trkpt lat="43.07773" lon="1.35993">
        <ele>280.84</ele>
        <time>2017-03-30T10:25:20Z</time>
      </trkpt>
      <trkpt lat="43.0779" lon="1.36">
        <ele>280.36</ele>
        <time>2017-03-30T10:25:38Z</time>
      </trkpt>
      <trkpt lat="43.07795" lon="1.36001">
        <ele>279.88</ele>
        <time>2017-03-30T10:25:43Z</time>
      </trkpt>
      <trkpt lat="43.07796" lon="1.36001">
        <ele>279.88</ele>
        <time>2017-03-30T10:25:44Z</time>
      </trkpt>
      <trkpt lat="43.07797" lon="1.36001">
        <ele>279.88</ele>
        <time>2017-03-30T10:25:45Z</time>
      </trkpt>
      <trkpt lat="43.07804" lon="1.36003">
        <ele>279.88</ele>
        <time>2017-03-30T10:25:51Z</time>
      </trkpt>
      <trkpt lat="43.07806" lon="1.36005">
        <ele>279.88</ele>
        <time>2017-03-30T10:25:54Z</time>
      </trkpt>
      <trkpt lat="43.07808" lon="1.36005">
        <ele>279.88</ele>
        <time>2017-03-30T10:25:55Z</time>
      </trkpt>
      <trkpt lat="43.07813" lon="1.36007">
        <ele>279.88</ele>
        <time>2017-03-30T10:26:00Z</time>
      </trkpt>
      <trkpt lat="43.07828" lon="1.36008">
        <ele>279.88</ele>
        <time>2017-03-30T10:26:14Z</time>
      </trkpt>
      <trkpt lat="43.07828" lon="1.36005">
        <ele>279.4</ele>
        <time>2017-03-30T10:26:29Z</time>
      </trkpt>
      <trkpt lat="43.07831" lon="1.35997">
        <ele>279.4</ele>
        <time>2017-03-30T10:26:38Z</time>
      </trkpt>
      <trkpt lat="43.07835" lon="1.35989">
        <ele>279.4</ele>
        <time>2017-03-30T10:26:45Z</time>
      </trkpt>
      <trkpt lat="43.07834" lon="1.35987">
        <ele>279.4</ele>
        <time>2017-03-30T10:26:46Z</time>
      </trkpt>
      <trkpt lat="43.07832" lon="1.35973">
        <ele>279.4</ele>
        <time>2017-03-30T10:26:59Z</time>
      </trkpt>
      <trkpt lat="43.07831" lon="1.35967">
        <ele>279.4</ele>
        <time>2017-03-30T10:27:08Z</time>
      </trkpt>
      <trkpt lat="43.07833" lon="1.35969">
        <ele>279.4</ele>
        <time>2017-03-30T10:27:12Z</time>
      </trkpt>
      <trkpt lat="43.07838" lon="1.35974">
        <ele>279.4</ele>
        <time>2017-03-30T10:27:19Z</time>
      </trkpt>
      <trkpt lat="43.07842" lon="1.35977">
        <ele>279.4</ele>
        <time>2017-03-30T10:27:23Z</time>
      </trkpt>
      <trkpt lat="43.07855" lon="1.35979">
        <ele>279.4</ele>
        <time>2017-03-30T10:27:36Z</time>
      </trkpt>
      <trkpt lat="43.0787" lon="1.35983">
        <ele>278.92</ele>
        <time>2017-03-30T10:27:50Z</time>
      </trkpt>
      <trkpt lat="43.07884" lon="1.35987">
        <ele>278.92</ele>
        <time>2017-03-30T10:28:03Z</time>
      </trkpt>
      <trkpt lat="43.07894" lon="1.35991">
        <ele>278.92</ele>
        <time>2017-03-30T10:28:27Z</time>
      </trkpt>
      <trkpt lat="43.07897" lon="1.35991">
        <ele>278.92</ele>
        <time>2017-03-30T10:28:30Z</time>
      </trkpt>
      <trkpt lat="43.07899" lon="1.35992">
        <ele>278.92</ele>
        <time>2017-03-30T10:28:31Z</time>
      </trkpt>
      <trkpt lat="43.079" lon="1.35992">
        <ele>278.92</ele>
        <time>2017-03-30T10:28:32Z</time>
      </trkpt>
      <trkpt lat="43.07924" lon="1.35996">
        <ele>278.44</ele>
        <time>2017-03-30T10:28:50Z</time>
      </trkpt>
      <trkpt lat="43.07938" lon="1.36001">
        <ele>278.44</ele>
        <time>2017-03-30T10:29:04Z</time>
      </trkpt>
      <trkpt lat="43.07939" lon="1.36001">
        <ele>278.44</ele>
        <time>2017-03-30T10:29:05Z</time>
      </trkpt>
      <trkpt lat="43.07959" lon="1.36005">
        <ele>278.44</ele>
        <time>2017-03-30T10:29:22Z</time>
      </trkpt>
      <trkpt lat="43.07975" lon="1.36006">
        <ele>278.44</ele>
        <time>2017-03-30T10:29:35Z</time>
      </trkpt>
      <trkpt lat="43.07986" lon="1.36007">
        <ele>277.96</ele>
        <time>2017-03-30T10:29:51Z</time>
      </trkpt>
      <trkpt lat="43.07991" lon="1.36013">
        <ele>277.96</ele>
        <time>2017-03-30T10:30:12Z</time>
      </trkpt>
      <trkpt lat="43.07992" lon="1.36014">
        <ele>277.96</ele>
        <time>2017-03-30T10:30:13Z</time>
      </trkpt>
      <trkpt lat="43.07992" lon="1.36014">
        <ele>277.48</ele>
        <time>2017-03-30T10:30:14Z</time>
      </trkpt>
      <trkpt lat="43.08003" lon="1.36018">
        <ele>278.44</ele>
        <time>2017-03-30T10:30:29Z</time>
      </trkpt>
      <trkpt lat="43.08008" lon="1.36018">
        <ele>278.44</ele>
        <time>2017-03-30T10:30:44Z</time>
      </trkpt>
      <trkpt lat="43.08011" lon="1.36016">
        <ele>278.44</ele>
        <time>2017-03-30T10:31:07Z</time>
      </trkpt>
      <trkpt lat="43.08014" lon="1.36015">
        <ele>278.92</ele>
        <time>2017-03-30T10:31:24Z</time>
      </trkpt>
    </trkseg>
  </trk>
</gpx>